Observation data for Amarillo 15 North Northwest on 01/12/2018      Previous  Date  Next       Current Mesonet Observations  Soil Data  Daily Summary Page  Observations in Plain Language
KAM3 120600Z 15006KT M06/M11 A3025 RMK A01 T10621111  RH  068%=      5-min Rain = 0
KAM3 120601Z 15006KT M06/M11 A3025 RMK A01 T10641112  RH  069%=      5-min Rain = 0
KAM3 120602Z 15007KT M06/M11 A3025 RMK A01 T10641112  RH  069%=      5-min Rain = 0
KAM3 120603Z 15007KT M06/M11 A3025 RMK A01 T10641111  RH  069%=      5-min Rain = 0
KAM3 120604Z 15007KT M06/M11 A3025 RMK A01 T10641111  RH  070%=      5-min Rain = 0
KAM3 120605Z 15007KT M06/M11 A3025 RMK A01 T10641110  RH  070%=      5-min Rain = 0
KAM3 120606Z 15007KT M06/M11 A3025 RMK A01 T10631110  RH  070%=      5-min Rain = 0
KAM3 120607Z 15006KT M06/M11 A3025 RMK A01 T10621109  RH  069%=      5-min Rain = 0
KAM3 120608Z 15006KT M06/M11 A3025 RMK A01 T10621109  RH  069%=      5-min Rain = 0
KAM3 120609Z 15006KT M06/M11 A3026 RMK A01 T10611109  RH  069%=      5-min Rain = 0
KAM3 120610Z 15006KT M06/M11 A3026 RMK A01 T10611110  RH  068%=      5-min Rain = 0
KAM3 120611Z 15006KT M06/M11 A3026 RMK A01 T10621110  RH  069%=      5-min Rain = 0
KAM3 120612Z 15006KT M06/M11 A3026 RMK A01 T10611108  RH  069%=      5-min Rain = 0
KAM3 120613Z 15006KT M06/M11 A3026 RMK A01 T10591108  RH  068%=      5-min Rain = 0
KAM3 120614Z 15006KT M06/M11 A3026 RMK A01 T10581108  RH  068%=      5-min Rain = 0
KAM3 120615Z 15005KT M06/M11 A3026 RMK A01 T10581109  RH  068%=      5-min Rain = 0
KAM3 120616Z 15005KT M06/M11 A3026 RMK A01 T10581107  RH  068%=      5-min Rain = 0
KAM3 120617Z 16005KT M06/M11 A3026 RMK A01 T10551105  RH  068%=      5-min Rain = 0
KAM3 120618Z 16005KT M05/M11 A3026 RMK A01 T10531105  RH  067%=      5-min Rain = 0
KAM3 120619Z 16005KT M05/M10 A3026 RMK A01 T10521104  RH  066%=      5-min Rain = 0
KAM3 120620Z 16005KT M05/M11 A3026 RMK A01 T10501105  RH  066%=      5-min Rain = 0
KAM3 120621Z 16006KT M05/M11 A3026 RMK A01 T10491105  RH  065%=      5-min Rain = 0
KAM3 120622Z 16006KT M05/M11 A3026 RMK A01 T10481105  RH  065%=      5-min Rain = 0
KAM3 120623Z 16006KT M05/M11 A3026 RMK A01 T10481105  RH  065%=      5-min Rain = 0
KAM3 120624Z 16006KT M05/M11 A3026 RMK A01 T10481105  RH  064%=      5-min Rain = 0
KAM3 120625Z 16005KT M05/M11 A3026 RMK A01 T10481105  RH  064%=      5-min Rain = 0
KAM3 120626Z 16004KT M05/M11 A3026 RMK A01 T10491107  RH  064%=      5-min Rain = 0
KAM3 120627Z 16004KT M05/M11 A3026 RMK A01 T10511108  RH  064%=      5-min Rain = 0
KAM3 120628Z 17004KT M05/M11 A3026 RMK A01 T10521107  RH  065%=      5-min Rain = 0
KAM3 120629Z 17004KT M05/M11 A3026 RMK A01 T10511106  RH  066%=      5-min Rain = 0
KAM3 120630Z 17004KT M05/M11 A3026 RMK A01 T10501105  RH  065%=      5-min Rain = 0
KAM3 120631Z 17004KT M05/M11 A3026 RMK A01 T10501105  RH  065%=      5-min Rain = 0
KAM3 120632Z 17004KT M05/M11 A3026 RMK A01 T10491105  RH  065%=      5-min Rain = 0
KAM3 120633Z 16004KT M05/M11 A3026 RMK A01 T10491105  RH  065%=      5-min Rain = 0
KAM3 120634Z 16004KT M05/M11 A3026 RMK A01 T10501106  RH  064%=      5-min Rain = 0
KAM3 120635Z 16004KT M05/M11 A3026 RMK A01 T10501107  RH  064%=      5-min Rain = 0
KAM3 120636Z 16004KT M05/M11 A3025 RMK A01 T10501106  RH  065%=      5-min Rain = 0
KAM3 120637Z 16003KT M05/M11 A3025 RMK A01 T10511107  RH  065%=      5-min Rain = 0
KAM3 120638Z 17003KT M05/M11 A3025 RMK A01 T10511106  RH  065%=      5-min Rain = 0
KAM3 120639Z 17002KT M05/M11 A3025 RMK A01 T10521108  RH  065%=      5-min Rain = 0
KAM3 120640Z 17003KT M05/M11 A3025 RMK A01 T10541109  RH  065%=      5-min Rain = 0
KAM3 120641Z 17003KT M05/M11 A3025 RMK A01 T10541108  RH  066%=      5-min Rain = 0
KAM3 120642Z 17003KT M06/M11 A3025 RMK A01 T10551108  RH  066%=      5-min Rain = 0
KAM3 120643Z 17003KT M06/M11 A3025 RMK A01 T10551107  RH  067%=      5-min Rain = 0
KAM3 120644Z 17003KT M05/M11 A3025 RMK A01 T10541106  RH  067%=      5-min Rain = 0
KAM3 120645Z 17003KT M05/M11 A3025 RMK A01 T10531106  RH  066%=      5-min Rain = 0
KAM3 120646Z 17003KT M05/M11 A3025 RMK A01 T10521106  RH  066%=      5-min Rain = 0
KAM3 120647Z 17003KT M05/M11 A3025 RMK A01 T10521106  RH  066%=      5-min Rain = 0
KAM3 120648Z 17003KT M05/M11 A3025 RMK A01 T10511105  RH  066%=      5-min Rain = 0
KAM3 120649Z 17002KT M05/M11 A3025 RMK A01 T10521106  RH  066%=      5-min Rain = 0
KAM3 120650Z 17003KT M05/M11 A3025 RMK A01 T10521106  RH  066%=      5-min Rain = 0
KAM3 120651Z 17003KT M05/M11 A3024 RMK A01 T10521106  RH  066%=      5-min Rain = 0
KAM3 120652Z 17002KT M05/M11 A3024 RMK A01 T10531107  RH  066%=      5-min Rain = 0
KAM3 120653Z 17002KT M05/M11 A3024 RMK A01 T10541107  RH  066%=      5-min Rain = 0
KAM3 120654Z 17002KT M05/M11 A3024 RMK A01 T10541107  RH  067%=      5-min Rain = 0
KAM3 120655Z 17002KT M05/M11 A3024 RMK A01 T10541106  RH  067%=      5-min Rain = 0
KAM3 120656Z 17002KT M05/M11 A3024 RMK A01 T10541106  RH  067%=      5-min Rain = 0
KAM3 120657Z 17002KT M06/M11 A3024 RMK A01 T10551107  RH  067%=      5-min Rain = 0
KAM3 120658Z 17002KT M06/M11 A3024 RMK A01 T10551107  RH  067%=      5-min Rain = 0
KAM3 120659Z 17002KT M06/M11 A3024 RMK A01 T10561107  RH  067%=      5-min Rain = 0
KAM3 120700Z 17001KT M06/M11 A3024 RMK A01 T10561107  RH  068%=      5-min Rain = 0
KAM3 120701Z 17002KT M06/M11 A3024 RMK A01 T10561107  RH  068%=      5-min Rain = 0
KAM3 120702Z 17002KT M06/M11 A3024 RMK A01 T10561106  RH  068%=      5-min Rain = 0
KAM3 120703Z 17002KT M06/M11 A3024 RMK A01 T10551105  RH  068%=      5-min Rain = 0
KAM3 120704Z 17001KT M06/M11 A3024 RMK A01 T10551106  RH  067%=      5-min Rain = 0
KAM3 120705Z 17001KT M06/M11 A3024 RMK A01 T10551106  RH  067%=      5-min Rain = 0
KAM3 120706Z 17001KT M06/M11 A3024 RMK A01 T10551106  RH  067%=      5-min Rain = 0
KAM3 120707Z 17001KT M06/M11 A3024 RMK A01 T10551106  RH  067%=      5-min Rain = 0
KAM3 120708Z 17000KT M06/M11 A3024 RMK A01 T10551106  RH  067%=      5-min Rain = 0
KAM3 120709Z 17001KT M06/M11 A3024 RMK A01 T10551106  RH  067%=      5-min Rain = 0
KAM3 120710Z 17001KT M06/M11 A3024 RMK A01 T10561107  RH  067%=      5-min Rain = 0
KAM3 120711Z 17001KT M06/M11 A3024 RMK A01 T10571108  RH  067%=      5-min Rain = 0
KAM3 120712Z 17000KT M06/M11 A3024 RMK A01 T10581108  RH  068%=      5-min Rain = 0
KAM3 120713Z 17001KT M06/M11 A3024 RMK A01 T10581108  RH  068%=      5-min Rain = 0
KAM3 120714Z 17001KT M06/M11 A3024 RMK A01 T10591108  RH  068%=      5-min Rain = 0
KAM3 120715Z 17001KT M06/M11 A3024 RMK A01 T10601109  RH  068%=      5-min Rain = 0
KAM3 120716Z 17001KT M06/M11 A3024 RMK A01 T10611109  RH  069%=      5-min Rain = 0
KAM3 120717Z 17002KT M06/M11 A3024 RMK A01 T10621109  RH  069%=      5-min Rain = 0
KAM3 120718Z 17003KT M06/M11 A3024 RMK A01 T10631109  RH  069%=      5-min Rain = 0
KAM3 120719Z 17003KT M06/M11 A3024 RMK A01 T10621109  RH  070%=      5-min Rain = 0
KAM3 120720Z 17003KT M06/M11 A3024 RMK A01 T10631108  RH  070%=      5-min Rain = 0
KAM3 120721Z 17003KT M06/M11 A3024 RMK A01 T10631109  RH  070%=      5-min Rain = 0
KAM3 120722Z 17002KT M06/M11 A3024 RMK A01 T10631108  RH  070%=      5-min Rain = 0
KAM3 120723Z 17002KT M06/M11 A3024 RMK A01 T10611106  RH  071%=      5-min Rain = 0
KAM3 120724Z 17002KT M06/M11 A3024 RMK A01 T10601105  RH  070%=      5-min Rain = 0
KAM3 120725Z 17002KT M06/M10 A3024 RMK A01 T10581104  RH  070%=      5-min Rain = 0
KAM3 120726Z 17002KT M06/M10 A3024 RMK A01 T10551103  RH  069%=      5-min Rain = 0
KAM3 120727Z 17002KT M05/M10 A3024 RMK A01 T10541103  RH  068%=      5-min Rain = 0
KAM3 120728Z 17002KT M05/M10 A3024 RMK A01 T10521103  RH  067%=      5-min Rain = 0
KAM3 120729Z 17002KT M05/M10 A3024 RMK A01 T10501103  RH  067%=      5-min Rain = 0
KAM3 120730Z 17002KT M05/M10 A3024 RMK A01 T10491103  RH  066%=      5-min Rain = 0
KAM3 120731Z 17002KT M05/M10 A3024 RMK A01 T10491104  RH  065%=      5-min Rain = 0
KAM3 120732Z 17002KT M05/M10 A3023 RMK A01 T10491104  RH  065%=      5-min Rain = 0
KAM3 120733Z 17001KT M05/M10 A3023 RMK A01 T10491104  RH  065%=      5-min Rain = 0
KAM3 120734Z 17001KT M05/M10 A3023 RMK A01 T10491104  RH  065%=      5-min Rain = 0
KAM3 120735Z 17001KT M05/M11 A3023 RMK A01 T10491105  RH  065%=      5-min Rain = 0
KAM3 120736Z 17001KT M05/M11 A3023 RMK A01 T10491105  RH  065%=      5-min Rain = 0
KAM3 120737Z 17001KT M05/M10 A3023 RMK A01 T10491104  RH  065%=      5-min Rain = 0
KAM3 120738Z 17000KT M05/M11 A3024 RMK A01 T10501105  RH  065%=      5-min Rain = 0
KAM3 120739Z 00000KT M05/M11 A3024 RMK A01 T10501105  RH  065%=      5-min Rain = 0
KAM3 120740Z 00000KT M05/M11 A3024 RMK A01 T10511106  RH  066%=      5-min Rain = 0
KAM3 120741Z 00000KT M05/M11 A3024 RMK A01 T10511106  RH  066%=      5-min Rain = 0
KAM3 120742Z 00000KT M05/M11 A3024 RMK A01 T10521106  RH  066%=      5-min Rain = 0
KAM3 120743Z 27002KT M05/M11 A3024 RMK A01 T10541108  RH  066%=      5-min Rain = 0
KAM3 120744Z 27003KT M06/M11 A3024 RMK A01 T10561109  RH  066%=      5-min Rain = 0
KAM3 120745Z 27003KT M06/M11 A3024 RMK A01 T10571108  RH  067%=      5-min Rain = 0
KAM3 120746Z 27003KT M06/M11 A3024 RMK A01 T10581108  RH  068%=      5-min Rain = 0
KAM3 120747Z 27003KT M06/M11 A3024 RMK A01 T10591109  RH  068%=      5-min Rain = 0
KAM3 120748Z 27003KT M06/M11 A3024 RMK A01 T10601108  RH  069%=      5-min Rain = 0
KAM3 120749Z 26003KT M06/M11 A3024 RMK A01 T10611108  RH  069%=      5-min Rain = 0
KAM3 120750Z 26003KT M06/M11 A3024 RMK A01 T10621108  RH  070%=      5-min Rain = 0
KAM3 120751Z 26003KT M06/M11 A3024 RMK A01 T10631108  RH  070%=      5-min Rain = 0
KAM3 120752Z 26003KT M06/M11 A3024 RMK A01 T10631109  RH  070%=      5-min Rain = 0
KAM3 120753Z 26003KT M06/M11 A3024 RMK A01 T10641108  RH  071%=      5-min Rain = 0
KAM3 120754Z 26003KT M06/M11 A3024 RMK A01 T10641109  RH  070%=      5-min Rain = 0
KAM3 120755Z 26003KT M07/M11 A3024 RMK A01 T10651110  RH  071%=      5-min Rain = 0
KAM3 120756Z 26002KT M07/M11 A3023 RMK A01 T10651109  RH  071%=      5-min Rain = 0
KAM3 120757Z 26002KT M07/M11 A3023 RMK A01 T10651109  RH  071%=      5-min Rain = 0
KAM3 120758Z 26002KT M07/M11 A3023 RMK A01 T10651109  RH  071%=      5-min Rain = 0
KAM3 120759Z 26002KT M07/M11 A3023 RMK A01 T10651108  RH  071%=      5-min Rain = 0
KAM3 120800Z 26002KT M07/M11 A3023 RMK A01 T10651108  RH  071%=      5-min Rain = 0
KAM3 120801Z 26002KT M07/M11 A3023 RMK A01 T10651108  RH  071%=      5-min Rain = 0
KAM3 120802Z 26002KT M06/M11 A3023 RMK A01 T10641107  RH  071%=      5-min Rain = 0
KAM3 120803Z 26002KT M06/M11 A3023 RMK A01 T10631107  RH  071%=      5-min Rain = 0
KAM3 120804Z 26001KT M06/M11 A3023 RMK A01 T10621106  RH  071%=      5-min Rain = 0
KAM3 120805Z 26001KT M06/M11 A3022 RMK A01 T10621107  RH  070%=      5-min Rain = 0
KAM3 120806Z 26001KT M06/M11 A3022 RMK A01 T10621108  RH  070%=      5-min Rain = 0
KAM3 120807Z 26001KT M06/M11 A3022 RMK A01 T10621108  RH  070%=      5-min Rain = 0
KAM3 120808Z 26001KT M06/M11 A3022 RMK A01 T10621107  RH  070%=      5-min Rain = 0
KAM3 120809Z 25001KT M06/M11 A3022 RMK A01 T10621107  RH  070%=      5-min Rain = 0
KAM3 120810Z 20002KT M06/M11 A3022 RMK A01 T10621108  RH  070%=      5-min Rain = 0
KAM3 120811Z 18002KT M06/M11 A3022 RMK A01 T10621108  RH  070%=      5-min Rain = 0
KAM3 120812Z 17002KT M06/M11 A3022 RMK A01 T10621108  RH  070%=      5-min Rain = 0
KAM3 120813Z 17002KT M06/M11 A3022 RMK A01 T10631108  RH  070%=      5-min Rain = 0
KAM3 120814Z 17002KT M06/M11 A3022 RMK A01 T10641109  RH  071%=      5-min Rain = 0
KAM3 120815Z 17002KT M07/M11 A3022 RMK A01 T10661111  RH  070%=      5-min Rain = 0
KAM3 120816Z 17002KT M07/M12 A3022 RMK A01 T10701115  RH  070%=      5-min Rain = 0
KAM3 120817Z 17002KT M07/M12 A3022 RMK A01 T10741117  RH  071%=      5-min Rain = 0
KAM3 120818Z 17003KT M08/M12 A3021 RMK A01 T10761117  RH  072%=      5-min Rain = 0
KAM3 120819Z 16004KT M08/M12 A3021 RMK A01 T10781117  RH  074%=      5-min Rain = 0
KAM3 120820Z 16005KT M08/M12 A3021 RMK A01 T10801118  RH  074%=      5-min Rain = 0
KAM3 120821Z 16006KT M08/M12 A3021 RMK A01 T10821119  RH  075%=      5-min Rain = 0
KAM3 120822Z 15006KT M08/M12 A3021 RMK A01 T10841120  RH  076%=      5-min Rain = 0
KAM3 120823Z 15007KT M09/M12 A3021 RMK A01 T10851119  RH  077%=      5-min Rain = 0
KAM3 120824Z 15007KT M09/M12 A3021 RMK A01 T10851118  RH  077%=      5-min Rain = 0
KAM3 120825Z 15007KT M08/M12 A3021 RMK A01 T10841116  RH  077%=      5-min Rain = 0
KAM3 120826Z 14007KT M08/M11 A3021 RMK A01 T10821114  RH  078%=      5-min Rain = 0
KAM3 120827Z 14007KT M08/M11 A3021 RMK A01 T10801113  RH  077%=      5-min Rain = 0
KAM3 120828Z 15007KT M08/M11 A3021 RMK A01 T10781112  RH  076%=      5-min Rain = 0
KAM3 120829Z 15007KT M08/M11 A3021 RMK A01 T10761112  RH  075%=      5-min Rain = 0
KAM3 120830Z 15007KT M08/M11 A3021 RMK A01 T10751113  RH  075%=      5-min Rain = 0
KAM3 120831Z 14007KT M08/M11 A3021 RMK A01 T10761114  RH  074%=      5-min Rain = 0
KAM3 120832Z 14007KT M08/M12 A3021 RMK A01 T10771116  RH  074%=      5-min Rain = 0
KAM3 120833Z 14007KT M08/M12 A3021 RMK A01 T10791117  RH  074%=      5-min Rain = 0
KAM3 120834Z 15007KT M08/M12 A3021 RMK A01 T10791117  RH  074%=      5-min Rain = 0
KAM3 120835Z 15007KT M08/M12 A3021 RMK A01 T10801116  RH  075%=      5-min Rain = 0
KAM3 120836Z 15007KT M08/M12 A3021 RMK A01 T10801116  RH  075%=      5-min Rain = 0
KAM3 120837Z 15007KT M08/M11 A3021 RMK A01 T10781114  RH  076%=      5-min Rain = 0
KAM3 120838Z 15007KT M08/M11 A3021 RMK A01 T10781113  RH  076%=      5-min Rain = 0
KAM3 120839Z 15007KT M08/M11 A3021 RMK A01 T10761113  RH  075%=      5-min Rain = 0
KAM3 120840Z 15007KT M08/M11 A3021 RMK A01 T10761113  RH  075%=      5-min Rain = 0
KAM3 120841Z 14008KT M08/M11 A3021 RMK A01 T10751113  RH  074%=      5-min Rain = 0
KAM3 120842Z 14007KT M08/M11 A3021 RMK A01 T10751113  RH  074%=      5-min Rain = 0
KAM3 120843Z 14007KT M07/M11 A3021 RMK A01 T10741113  RH  074%=      5-min Rain = 0
KAM3 120844Z 15007KT M07/M11 A302 RMK A01 T10741113  RH  074%=      5-min Rain = 0
KAM3 120845Z 15007KT M08/M11 A302 RMK A01 T10751114  RH  074%=      5-min Rain = 0
KAM3 120846Z 15007KT M08/M12 A302 RMK A01 T10761115  RH  074%=      5-min Rain = 0
KAM3 120847Z 15007KT M08/M12 A302 RMK A01 T10771116  RH  074%=      5-min Rain = 0
KAM3 120848Z 15007KT M08/M12 A302 RMK A01 T10781116  RH  074%=      5-min Rain = 0
KAM3 120849Z 15007KT M08/M12 A302 RMK A01 T10781116  RH  074%=      5-min Rain = 0
KAM3 120850Z 15007KT M08/M12 A302 RMK A01 T10791117  RH  074%=      5-min Rain = 0
KAM3 120851Z 15006KT M08/M12 A302 RMK A01 T10801117  RH  075%=      5-min Rain = 0
KAM3 120852Z 15006KT M08/M12 A302 RMK A01 T10811117  RH  075%=      5-min Rain = 0
KAM3 120853Z 16007KT M08/M12 A302 RMK A01 T10811117  RH  075%=      5-min Rain = 0
KAM3 120854Z 16007KT M08/M12 A302 RMK A01 T10801115  RH  075%=      5-min Rain = 0
KAM3 120855Z 15006KT M08/M11 A302 RMK A01 T10781114  RH  075%=      5-min Rain = 0
KAM3 120856Z 15006KT M08/M11 A302 RMK A01 T10761114  RH  074%=      5-min Rain = 0
KAM3 120857Z 16006KT M08/M12 A302 RMK A01 T10761115  RH  074%=      5-min Rain = 0
KAM3 120858Z 16006KT M08/M12 A302 RMK A01 T10761115  RH  073%=      5-min Rain = 0
KAM3 120859Z 16006KT M08/M12 A302 RMK A01 T10761116  RH  073%=      5-min Rain = 0
KAM3 120900Z 16006KT M08/M12 A302 RMK A01 T10761115  RH  073%=      5-min Rain = 0
KAM3 120901Z 16006KT M08/M12 A302 RMK A01 T10761115  RH  074%=      5-min Rain = 0
KAM3 120902Z 16006KT M08/M11 A302 RMK A01 T10761114  RH  074%=      5-min Rain = 0
KAM3 120903Z 16006KT M08/M11 A302 RMK A01 T10761114  RH  074%=      5-min Rain = 0
KAM3 120904Z 16005KT M08/M11 A302 RMK A01 T10751112  RH  074%=      5-min Rain = 0
KAM3 120905Z 16004KT M07/M11 A3021 RMK A01 T10741112  RH  074%=      5-min Rain = 0
KAM3 120906Z 17003KT M07/M11 A3021 RMK A01 T10741112  RH  074%=      5-min Rain = 0
KAM3 120907Z 21002KT M08/M12 A3021 RMK A01 T10751115  RH  073%=      5-min Rain = 0
KAM3 120908Z 23002KT M08/M12 A3021 RMK A01 T10781118  RH  073%=      5-min Rain = 0
KAM3 120909Z 24001KT M08/M12 A3021 RMK A01 T10801120  RH  073%=      5-min Rain = 0
KAM3 120910Z 25001KT M08/M12 A3021 RMK A01 T10821121  RH  073%=      5-min Rain = 0
KAM3 120911Z 26001KT M08/M12 A3021 RMK A01 T10841122  RH  074%=      5-min Rain = 0
KAM3 120912Z 26001KT M09/M12 A3021 RMK A01 T10861123  RH  074%=      5-min Rain = 0
KAM3 120913Z 26001KT M09/M12 A3021 RMK A01 T10871122  RH  076%=      5-min Rain = 0
KAM3 120914Z 26001KT M09/M12 A3021 RMK A01 T10881121  RH  077%=      5-min Rain = 0
KAM3 120915Z 26001KT M09/M12 A3021 RMK A01 T10881121  RH  077%=      5-min Rain = 0
KAM3 120916Z 26001KT M09/M12 A3021 RMK A01 T10881120  RH  078%=      5-min Rain = 0
KAM3 120917Z 26001KT M09/M12 A3021 RMK A01 T10881119  RH  078%=      5-min Rain = 0
KAM3 120918Z 26001KT M09/M12 A3021 RMK A01 T10871118  RH  078%=      5-min Rain = 0
KAM3 120919Z 26000KT M09/M12 A3021 RMK A01 T10861117  RH  079%=      5-min Rain = 0
KAM3 120920Z 26000KT M09/M12 A3021 RMK A01 T10851116  RH  079%=      5-min Rain = 0
KAM3 120921Z 26001KT M09/M12 A3021 RMK A01 T10851116  RH  078%=      5-min Rain = 0
KAM3 120922Z 27001KT M08/M12 A3021 RMK A01 T10841116  RH  078%=      5-min Rain = 0
KAM3 120923Z 27001KT M08/M12 A3021 RMK A01 T10831115  RH  078%=      5-min Rain = 0
KAM3 120924Z 27001KT M08/M11 A3021 RMK A01 T10811113  RH  078%=      5-min Rain = 0
KAM3 120925Z 27002KT M08/M11 A3021 RMK A01 T10811113  RH  077%=      5-min Rain = 0
KAM3 120926Z 27001KT M08/M11 A302 RMK A01 T10781111  RH  077%=      5-min Rain = 0
KAM3 120927Z 27001KT M08/M11 A302 RMK A01 T10761109  RH  077%=      5-min Rain = 0
KAM3 120928Z 27001KT M07/M11 A302 RMK A01 T10741110  RH  076%=      5-min Rain = 0
KAM3 120929Z 27000KT M07/M11 A302 RMK A01 T10731111  RH  074%=      5-min Rain = 0
KAM3 120930Z 00000KT M07/M11 A302 RMK A01 T10731112  RH  074%=      5-min Rain = 0
KAM3 120931Z 00000KT M07/M11 A302 RMK A01 T10731113  RH  073%=      5-min Rain = 0
KAM3 120932Z 00000KT M07/M11 A302 RMK A01 T10731113  RH  073%=      5-min Rain = 0
KAM3 120933Z 26000KT M07/M11 A302 RMK A01 T10731113  RH  073%=      5-min Rain = 0
KAM3 120934Z 26000KT M07/M11 A302 RMK A01 T10731113  RH  073%=      5-min Rain = 0
KAM3 120935Z 26001KT M07/M11 A302 RMK A01 T10731113  RH  073%=      5-min Rain = 0
KAM3 120936Z 26001KT M07/M11 A302 RMK A01 T10731113  RH  073%=      5-min Rain = 0
KAM3 120937Z 26001KT M07/M11 A302 RMK A01 T10721113  RH  073%=      5-min Rain = 0
KAM3 120938Z 26002KT M07/M11 A3021 RMK A01 T10721113  RH  073%=      5-min Rain = 0
KAM3 120939Z 26002KT M07/M11 A3021 RMK A01 T10721112  RH  073%=      5-min Rain = 0
KAM3 120940Z 26002KT M07/M11 A3021 RMK A01 T10711110  RH  073%=      5-min Rain = 0
KAM3 120941Z 26002KT M07/M11 A3021 RMK A01 T10691109  RH  073%=      5-min Rain = 0
KAM3 120942Z 25002KT M07/M11 A3021 RMK A01 T10681109  RH  073%=      5-min Rain = 0
KAM3 120943Z 25002KT M07/M11 A3021 RMK A01 T10671109  RH  072%=      5-min Rain = 0
KAM3 120944Z 25002KT M07/M11 A3021 RMK A01 T10661109  RH  072%=      5-min Rain = 0
KAM3 120945Z 27002KT M07/M11 A3021 RMK A01 T10661110  RH  071%=      5-min Rain = 0
KAM3 120946Z 28003KT M07/M11 A3021 RMK A01 T10671111  RH  071%=      5-min Rain = 0
KAM3 120947Z 29003KT M07/M11 A3021 RMK A01 T10681111  RH  071%=      5-min Rain = 0
KAM3 120948Z 29002KT M07/M11 A3021 RMK A01 T10681111  RH  071%=      5-min Rain = 0
KAM3 120949Z 30002KT M07/M11 A3021 RMK A01 T10701113  RH  071%=      5-min Rain = 0
KAM3 120950Z 30002KT M07/M11 A3021 RMK A01 T10701113  RH  072%=      5-min Rain = 0
KAM3 120951Z 30002KT M07/M12 A3021 RMK A01 T10721115  RH  071%=      5-min Rain = 0
KAM3 120952Z 30002KT M07/M12 A3021 RMK A01 T10741115  RH  072%=      5-min Rain = 0
KAM3 120953Z 30002KT M08/M12 A3021 RMK A01 T10751115  RH  073%=      5-min Rain = 0
KAM3 120954Z 33003KT M08/M11 A3021 RMK A01 T10751114  RH  073%=      5-min Rain = 0
KAM3 120955Z 33003KT M08/M11 A3021 RMK A01 T10751114  RH  074%=      5-min Rain = 0
KAM3 120956Z 33002KT M08/M11 A3021 RMK A01 T10751114  RH  074%=      5-min Rain = 0
KAM3 120957Z 33003KT M08/M11 A3021 RMK A01 T10751114  RH  074%=      5-min Rain = 0
KAM3 120958Z 34002KT M08/M12 A3021 RMK A01 T10761115  RH  074%=      5-min Rain = 0
KAM3 120959Z 34002KT M08/M12 A3021 RMK A01 T10771116  RH  074%=      5-min Rain = 0
KAM3 121000Z 34002KT M08/M12 A3021 RMK A01 T10781115  RH  074%=      5-min Rain = 0
KAM3 121001Z 34002KT M08/M12 A3021 RMK A01 T10781115  RH  075%=      5-min Rain = 0
KAM3 121002Z 34002KT M08/M11 A3021 RMK A01 T10781114  RH  075%=      5-min Rain = 0
KAM3 121003Z 34002KT M08/M11 A3021 RMK A01 T10781114  RH  075%=      5-min Rain = 0
KAM3 121004Z 34002KT M08/M11 A3021 RMK A01 T10781114  RH  075%=      5-min Rain = 0
KAM3 121005Z 34002KT M08/M11 A3021 RMK A01 T10781114  RH  076%=      5-min Rain = 0
KAM3 121006Z 34002KT M08/M11 A3021 RMK A01 T10781113  RH  076%=      5-min Rain = 0
KAM3 121007Z 34002KT M08/M11 A3021 RMK A01 T10781113  RH  076%=      5-min Rain = 0
KAM3 121008Z 34002KT M08/M11 A3021 RMK A01 T10781113  RH  076%=      5-min Rain = 0
KAM3 121009Z 34002KT M08/M11 A3021 RMK A01 T10781113  RH  076%=      5-min Rain = 0
KAM3 121010Z 34002KT M08/M11 A3021 RMK A01 T10781113  RH  076%=      5-min Rain = 0
KAM3 121011Z 34002KT M08/M11 A3021 RMK A01 T10771112  RH  076%=      5-min Rain = 0
KAM3 121012Z 34002KT M08/M11 A3021 RMK A01 T10771113  RH  076%=      5-min Rain = 0
KAM3 121013Z 34002KT M08/M11 A3021 RMK A01 T10771112  RH  076%=      5-min Rain = 0
KAM3 121014Z 34001KT M08/M11 A3021 RMK A01 T10761113  RH  075%=      5-min Rain = 0
KAM3 121015Z 34001KT M08/M11 A3021 RMK A01 T10761112  RH  075%=      5-min Rain = 0
KAM3 121016Z 34001KT M08/M11 A3021 RMK A01 T10761112  RH  075%=      5-min Rain = 0
KAM3 121017Z 34001KT M08/M11 A3021 RMK A01 T10761112  RH  075%=      5-min Rain = 0
KAM3 121018Z 34001KT M08/M11 A3021 RMK A01 T10751112  RH  075%=      5-min Rain = 0
KAM3 121019Z 34000KT M08/M11 A3021 RMK A01 T10751112  RH  075%=      5-min Rain = 0
KAM3 121020Z 34001KT M08/M11 A3021 RMK A01 T10751113  RH  075%=      5-min Rain = 0
KAM3 121021Z 34001KT M08/M11 A3021 RMK A01 T10761112  RH  075%=      5-min Rain = 0
KAM3 121022Z 34001KT M08/M11 A3021 RMK A01 T10751112  RH  075%=      5-min Rain = 0
KAM3 121023Z 34001KT M08/M11 A3021 RMK A01 T10751112  RH  075%=      5-min Rain = 0
KAM3 121024Z 34001KT M08/M11 A3021 RMK A01 T10761112  RH  075%=      5-min Rain = 0
KAM3 121025Z 34001KT M08/M11 A3021 RMK A01 T10761112  RH  075%=      5-min Rain = 0
KAM3 121026Z 00000KT M08/M11 A3021 RMK A01 T10761112  RH  075%=      5-min Rain = 0
KAM3 121027Z 34000KT M08/M11 A3021 RMK A01 T10771113  RH  075%=      5-min Rain = 0
KAM3 121028Z 00000KT M08/M11 A3021 RMK A01 T10781114  RH  075%=      5-min Rain = 0
KAM3 121029Z 00000KT M08/M12 A3021 RMK A01 T10791115  RH  075%=      5-min Rain = 0
KAM3 121030Z 00000KT M08/M12 A3021 RMK A01 T10801115  RH  076%=      5-min Rain = 0
KAM3 121031Z 00000KT M08/M11 A3021 RMK A01 T10791114  RH  076%=      5-min Rain = 0
KAM3 121032Z 00000KT M08/M11 A3021 RMK A01 T10791114  RH  076%=      5-min Rain = 0
KAM3 121033Z 00000KT M08/M11 A3021 RMK A01 T10801114  RH  077%=      5-min Rain = 0
KAM3 121034Z 00000KT M08/M11 A3021 RMK A01 T10791113  RH  077%=      5-min Rain = 0
KAM3 121035Z 34000KT M08/M11 A3021 RMK A01 T10771112  RH  077%=      5-min Rain = 0
KAM3 121036Z 34001KT M08/M11 A3021 RMK A01 T10771111  RH  076%=      5-min Rain = 0
KAM3 121037Z 34001KT M08/M11 A3021 RMK A01 T10761112  RH  076%=      5-min Rain = 0
KAM3 121038Z 34001KT M08/M11 A3021 RMK A01 T10751111  RH  076%=      5-min Rain = 0
KAM3 121039Z 34001KT M07/M11 A3021 RMK A01 T10741110  RH  075%=      5-min Rain = 0
KAM3 121040Z 09001KT M07/M11 A3021 RMK A01 T10731109  RH  075%=      5-min Rain = 0
KAM3 121041Z 12002KT M07/M11 A302 RMK A01 T10711108  RH  075%=      5-min Rain = 0
KAM3 121042Z 12002KT M07/M11 A302 RMK A01 T10681107  RH  074%=      5-min Rain = 0
KAM3 121043Z 12002KT M07/M11 A302 RMK A01 T10661107  RH  073%=      5-min Rain = 0
KAM3 121044Z 12003KT M07/M11 A302 RMK A01 T10651108  RH  072%=      5-min Rain = 0
KAM3 121045Z 12003KT M06/M11 A302 RMK A01 T10641108  RH  071%=      5-min Rain = 0
KAM3 121046Z 12003KT M06/M11 A302 RMK A01 T10631109  RH  070%=      5-min Rain = 0
KAM3 121047Z 12003KT M06/M11 A302 RMK A01 T10641110  RH  070%=      5-min Rain = 0
KAM3 121048Z 13003KT M06/M11 A302 RMK A01 T10641110  RH  070%=      5-min Rain = 0
KAM3 121049Z 15004KT M06/M11 A302 RMK A01 T10641110  RH  070%=      5-min Rain = 0
KAM3 121050Z 16004KT M07/M11 A302 RMK A01 T10651110  RH  071%=      5-min Rain = 0
KAM3 121051Z 16004KT M07/M11 A3019 RMK A01 T10671111  RH  071%=      5-min Rain = 0
KAM3 121052Z 16005KT M07/M11 A3019 RMK A01 T10681111  RH  072%=      5-min Rain = 0
KAM3 121053Z 16005KT M07/M11 A3019 RMK A01 T10701112  RH  072%=      5-min Rain = 0
KAM3 121054Z 17004KT M07/M11 A3019 RMK A01 T10721111  RH  073%=      5-min Rain = 0
KAM3 121055Z 17004KT M07/M11 A302 RMK A01 T10721110  RH  074%=      5-min Rain = 0
KAM3 121056Z 17004KT M07/M11 A302 RMK A01 T10721110  RH  074%=      5-min Rain = 0
KAM3 121057Z 17004KT M07/M11 A302 RMK A01 T10731110  RH  075%=      5-min Rain = 0
KAM3 121058Z 17005KT M07/M11 A302 RMK A01 T10731110  RH  075%=      5-min Rain = 0
KAM3 121059Z 17005KT M07/M11 A302 RMK A01 T10721109  RH  075%=      5-min Rain = 0
KAM3 121100Z 17005KT M07/M11 A302 RMK A01 T10731110  RH  075%=      5-min Rain = 0
KAM3 121101Z 17005KT M07/M11 A3019 RMK A01 T10731110  RH  075%=      5-min Rain = 0
KAM3 121102Z 17005KT M07/M11 A3019 RMK A01 T10741110  RH  075%=      5-min Rain = 0
KAM3 121103Z 16006KT M07/M11 A3019 RMK A01 T10741110  RH  075%=      5-min Rain = 0
KAM3 121104Z 16006KT M08/M11 A3019 RMK A01 T10751110  RH  076%=      5-min Rain = 0
KAM3 121105Z 16005KT M07/M11 A3019 RMK A01 T10741109  RH  076%=      5-min Rain = 0
KAM3 121106Z 16005KT M07/M11 A302 RMK A01 T10741109  RH  076%=      5-min Rain = 0
KAM3 121107Z 16004KT M08/M11 A302 RMK A01 T10751110  RH  076%=      5-min Rain = 0
KAM3 121108Z 16004KT M08/M11 A302 RMK A01 T10751109  RH  076%=      5-min Rain = 0
KAM3 121109Z 16004KT M07/M11 A302 RMK A01 T10741109  RH  076%=      5-min Rain = 0
KAM3 121110Z 17004KT M07/M11 A302 RMK A01 T10741109  RH  076%=      5-min Rain = 0
KAM3 121111Z 17004KT M07/M11 A302 RMK A01 T10741108  RH  076%=      5-min Rain = 0
KAM3 121112Z 17004KT M07/M11 A302 RMK A01 T10731109  RH  076%=      5-min Rain = 0
KAM3 121113Z 17004KT M07/M11 A302 RMK A01 T10721108  RH  076%=      5-min Rain = 0
KAM3 121114Z 18004KT M07/M11 A302 RMK A01 T10721109  RH  075%=      5-min Rain = 0
KAM3 121115Z 18004KT M07/M11 A302 RMK A01 T10721109  RH  075%=      5-min Rain = 0
KAM3 121116Z 18003KT M07/M11 A302 RMK A01 T10731110  RH  075%=      5-min Rain = 0
KAM3 121117Z 18003KT M07/M11 A302 RMK A01 T10731110  RH  075%=      5-min Rain = 0
KAM3 121118Z 18003KT M07/M11 A302 RMK A01 T10741110  RH  075%=      5-min Rain = 0
KAM3 121119Z 18003KT M07/M11 A302 RMK A01 T10741110  RH  076%=      5-min Rain = 0
KAM3 121120Z 19003KT M07/M11 A302 RMK A01 T10741109  RH  076%=      5-min Rain = 0
KAM3 121121Z 20003KT M07/M11 A302 RMK A01 T10741110  RH  076%=      5-min Rain = 0
KAM3 121122Z 21003KT M07/M11 A302 RMK A01 T10741110  RH  076%=      5-min Rain = 0
KAM3 121123Z 21003KT M07/M11 A302 RMK A01 T10741110  RH  075%=      5-min Rain = 0
KAM3 121124Z 24002KT M07/M11 A302 RMK A01 T10731110  RH  075%=      5-min Rain = 0
KAM3 121125Z 24003KT M07/M11 A302 RMK A01 T10741110  RH  075%=      5-min Rain = 0
KAM3 121126Z 23002KT M07/M11 A302 RMK A01 T10741110  RH  075%=      5-min Rain = 0
KAM3 121127Z 24002KT M07/M11 A302 RMK A01 T10741110  RH  075%=      5-min Rain = 0
KAM3 121128Z 24002KT M08/M11 A302 RMK A01 T10751110  RH  076%=      5-min Rain = 0
KAM3 121129Z 25001KT M08/M11 A302 RMK A01 T10751110  RH  076%=      5-min Rain = 0
KAM3 121130Z 25001KT M08/M11 A302 RMK A01 T10751110  RH  076%=      5-min Rain = 0
KAM3 121131Z 25001KT M08/M11 A302 RMK A01 T10751110  RH  076%=      5-min Rain = 0
KAM3 121132Z 25001KT M07/M11 A302 RMK A01 T10741110  RH  076%=      5-min Rain = 0
KAM3 121133Z 27001KT M08/M11 A302 RMK A01 T10751111  RH  076%=      5-min Rain = 0
KAM3 121134Z 31002KT M08/M11 A302 RMK A01 T10751110  RH  076%=      5-min Rain = 0
KAM3 121135Z 31002KT M08/M11 A302 RMK A01 T10751110  RH  076%=      5-min Rain = 0
KAM3 121136Z 31002KT M08/M11 A302 RMK A01 T10751110  RH  076%=      5-min Rain = 0
KAM3 121137Z 31003KT M07/M11 A302 RMK A01 T10741109  RH  076%=      5-min Rain = 0
KAM3 121138Z 31003KT M07/M11 A302 RMK A01 T10741110  RH  076%=      5-min Rain = 0
KAM3 121139Z 33003KT M07/M11 A302 RMK A01 T10741110  RH  076%=      5-min Rain = 0
KAM3 121140Z 33003KT M07/M11 A302 RMK A01 T10741110  RH  075%=      5-min Rain = 0
KAM3 121141Z 33003KT M07/M11 A302 RMK A01 T10741110  RH  075%=      5-min Rain = 0
KAM3 121142Z 33003KT M07/M11 A302 RMK A01 T10741110  RH  075%=      5-min Rain = 0
KAM3 121143Z 33002KT M07/M11 A3019 RMK A01 T10741110  RH  075%=      5-min Rain = 0
KAM3 121144Z 33002KT M07/M11 A3019 RMK A01 T10731109  RH  075%=      5-min Rain = 0
KAM3 121145Z 33002KT M07/M11 A3019 RMK A01 T10731110  RH  075%=      5-min Rain = 0
KAM3 121146Z 33002KT M07/M11 A3019 RMK A01 T10741112  RH  075%=      5-min Rain = 0
KAM3 121147Z 33001KT M08/M11 A3019 RMK A01 T10751111  RH  075%=      5-min Rain = 0
KAM3 121148Z 33001KT M08/M11 A3019 RMK A01 T10751110  RH  076%=      5-min Rain = 0
KAM3 121149Z 33000KT M07/M11 A3019 RMK A01 T10741109  RH  076%=      5-min Rain = 0
KAM3 121150Z 33000KT M07/M11 A3019 RMK A01 T10721108  RH  076%=      5-min Rain = 0
KAM3 121151Z 06001KT M07/M11 A3019 RMK A01 T10731111  RH  075%=      5-min Rain = 0
KAM3 121152Z 09003KT M08/M12 A3019 RMK A01 T10771115  RH  074%=      5-min Rain = 0
KAM3 121153Z 10003KT M08/M12 A3019 RMK A01 T10801117  RH  075%=      5-min Rain = 0
KAM3 121154Z 13004KT M08/M11 A3019 RMK A01 T10811114  RH  077%=      5-min Rain = 0
KAM3 121155Z 15005KT M08/M11 A3019 RMK A01 T10791112  RH  078%=      5-min Rain = 0
KAM3 121156Z 15004KT M08/M11 A3019 RMK A01 T10781109  RH  078%=      5-min Rain = 0
KAM3 121157Z 15005KT M08/M11 A3019 RMK A01 T10771110  RH  077%=      5-min Rain = 0
KAM3 121158Z 15005KT M08/M11 A3019 RMK A01 T10791113  RH  077%=      5-min Rain = 0
KAM3 121159Z 15006KT M08/M11 A3019 RMK A01 T10801113  RH  077%=      5-min Rain = 0
KAM3 121200Z 15006KT M08/M11 A3019 RMK A01 T10801113  RH  077%=      5-min Rain = 0
KAM3 121201Z 15006KT M08/M11 A3019 RMK A01 T10821114  RH  078%=      5-min Rain = 0
KAM3 121202Z 15007KT M08/M12 A3019 RMK A01 T10831115  RH  078%=      5-min Rain = 0
KAM3 121203Z 14006KT M09/M12 A3019 RMK A01 T10851116  RH  078%=      5-min Rain = 0
KAM3 121204Z 14006KT M09/M12 A3019 RMK A01 T10871117  RH  079%=      5-min Rain = 0
KAM3 121205Z 14004KT M09/M12 A3019 RMK A01 T10881117  RH  080%=      5-min Rain = 0
KAM3 121206Z 14004KT M09/M12 A3019 RMK A01 T10891117  RH  080%=      5-min Rain = 0
KAM3 121207Z 14004KT M09/M12 A3019 RMK A01 T10891116  RH  081%=      5-min Rain = 0
KAM3 121208Z 14005KT M09/M12 A3019 RMK A01 T10881115  RH  081%=      5-min Rain = 0
KAM3 121209Z 14004KT M09/M11 A3019 RMK A01 T10871114  RH  081%=      5-min Rain = 0
KAM3 121210Z 14005KT M09/M11 A3019 RMK A01 T10861114  RH  080%=      5-min Rain = 0
KAM3 121211Z 13005KT M09/M12 A3019 RMK A01 T10861115  RH  079%=      5-min Rain = 0
KAM3 121212Z 13005KT M09/M12 A3019 RMK A01 T10861115  RH  079%=      5-min Rain = 0
KAM3 121213Z 13004KT M09/M11 A3019 RMK A01 T10851114  RH  080%=      5-min Rain = 0
KAM3 121214Z 13005KT M09/M11 A3019 RMK A01 T10851114  RH  080%=      5-min Rain = 0
KAM3 121215Z 14005KT M08/M11 A3019 RMK A01 T10841113  RH  079%=      5-min Rain = 0
KAM3 121216Z 14005KT M08/M11 A3019 RMK A01 T10841113  RH  079%=      5-min Rain = 0
KAM3 121217Z 14005KT M08/M11 A3019 RMK A01 T10821112  RH  079%=      5-min Rain = 0
KAM3 121218Z 15005KT M08/M11 A3019 RMK A01 T10811111  RH  079%=      5-min Rain = 0
KAM3 121219Z 14005KT M08/M11 A3019 RMK A01 T10811112  RH  078%=      5-min Rain = 0
KAM3 121220Z 15005KT M08/M11 A3019 RMK A01 T10811113  RH  078%=      5-min Rain = 0
KAM3 121221Z 15006KT M08/M11 A3019 RMK A01 T10811112  RH  078%=      5-min Rain = 0
KAM3 121222Z 16006KT M08/M11 A3019 RMK A01 T10811113  RH  078%=      5-min Rain = 0
KAM3 121223Z 16005KT M08/M11 A3019 RMK A01 T10811113  RH  078%=      5-min Rain = 0
KAM3 121224Z 16005KT M08/M11 A3019 RMK A01 T10801112  RH  078%=      5-min Rain = 0
KAM3 121225Z 16006KT M08/M11 A302 RMK A01 T10811113  RH  078%=      5-min Rain = 0
KAM3 121226Z 16005KT M08/M11 A302 RMK A01 T10801112  RH  078%=      5-min Rain = 0
KAM3 121227Z 16005KT M08/M11 A302 RMK A01 T10801112  RH  078%=      5-min Rain = 0
KAM3 121228Z 16005KT M08/M11 A302 RMK A01 T10801113  RH  077%=      5-min Rain = 0
KAM3 121229Z 16005KT M08/M11 A302 RMK A01 T10811114  RH  077%=      5-min Rain = 0
KAM3 121230Z 17005KT M08/M11 A302 RMK A01 T10821114  RH  078%=      5-min Rain = 0
KAM3 121231Z 17004KT M08/M11 A302 RMK A01 T10821113  RH  078%=      5-min Rain = 0
KAM3 121232Z 17003KT M08/M11 A302 RMK A01 T10831114  RH  078%=      5-min Rain = 0
KAM3 121233Z 17003KT M08/M11 A302 RMK A01 T10831114  RH  078%=      5-min Rain = 0
KAM3 121234Z 17003KT M08/M11 A302 RMK A01 T10831113  RH  079%=      5-min Rain = 0
KAM3 121235Z 18004KT M08/M11 A302 RMK A01 T10831113  RH  079%=      5-min Rain = 0
KAM3 121236Z 18004KT M08/M11 A3021 RMK A01 T10821112  RH  079%=      5-min Rain = 0
KAM3 121237Z 18005KT M08/M11 A3021 RMK A01 T10821112  RH  079%=      5-min Rain = 0
KAM3 121238Z 18005KT M08/M11 A3021 RMK A01 T10821113  RH  078%=      5-min Rain = 0
KAM3 121239Z 19005KT M08/M11 A302 RMK A01 T10821113  RH  078%=      5-min Rain = 0
KAM3 121240Z 20005KT M08/M11 A302 RMK A01 T10821114  RH  078%=      5-min Rain = 0
KAM3 121241Z 20006KT M08/M12 A302 RMK A01 T10831115  RH  078%=      5-min Rain = 0
KAM3 121242Z 20006KT M08/M12 A302 RMK A01 T10841116  RH  078%=      5-min Rain = 0
KAM3 121243Z 20007KT M09/M12 A302 RMK A01 T10851116  RH  078%=      5-min Rain = 0
KAM3 121244Z 20007KT M09/M12 A302 RMK A01 T10871118  RH  078%=      5-min Rain = 0
KAM3 121245Z 20008KT M09/M12 A3019 RMK A01 T10891120  RH  078%=      5-min Rain = 0
KAM3 121246Z 20008KT M09/M12 A3019 RMK A01 T10911122  RH  079%=      5-min Rain = 0
KAM3 121247Z 19008KT M09/M12 A3019 RMK A01 T10931123  RH  079%=      5-min Rain = 0
KAM3 121248Z 19008KT M09/M12 A3019 RMK A01 T10941121  RH  080%=      5-min Rain = 0
KAM3 121249Z 19007KT M09/M12 A3019 RMK A01 T10941120  RH  081%=      5-min Rain = 0
KAM3 121250Z 19007KT M09/M12 A3019 RMK A01 T10941119  RH  082%=      5-min Rain = 0
KAM3 121251Z 19006KT M09/M12 A3019 RMK A01 T10931118  RH  082%=      5-min Rain = 0
KAM3 121252Z 19006KT M09/M12 A3019 RMK A01 T10921117  RH  082%=      5-min Rain = 0
KAM3 121253Z 19005KT M09/M12 A3019 RMK A01 T10911116  RH  082%=      5-min Rain = 0
KAM3 121254Z 19005KT M09/M12 A3019 RMK A01 T10901115  RH  082%=      5-min Rain = 0
KAM3 121255Z 19005KT M09/M12 A3019 RMK A01 T10891115  RH  081%=      5-min Rain = 0
KAM3 121256Z 20004KT M09/M12 A3019 RMK A01 T10881115  RH  081%=      5-min Rain = 0
KAM3 121257Z 20004KT M09/M12 A3019 RMK A01 T10881115  RH  080%=      5-min Rain = 0
KAM3 121258Z 20004KT M09/M12 A3019 RMK A01 T10881116  RH  080%=      5-min Rain = 0
KAM3 121259Z 20004KT M09/M12 A3019 RMK A01 T10881116  RH  080%=      5-min Rain = 0
KAM3 121300Z 20004KT M09/M12 A3019 RMK A01 T10881117  RH  080%=      5-min Rain = 0
KAM3 121301Z 20004KT M09/M12 A3019 RMK A01 T10891118  RH  080%=      5-min Rain = 0
KAM3 121302Z 19005KT M09/M12 A3019 RMK A01 T10891118  RH  080%=      5-min Rain = 0
KAM3 121303Z 19005KT M09/M12 A3019 RMK A01 T10911119  RH  080%=      5-min Rain = 0
KAM3 121304Z 19006KT M09/M12 A3019 RMK A01 T10911119  RH  080%=      5-min Rain = 0
KAM3 121305Z 18006KT M09/M12 A3019 RMK A01 T10921119  RH  081%=      5-min Rain = 0
KAM3 121306Z 18006KT M09/M12 A3019 RMK A01 T10921119  RH  081%=      5-min Rain = 0
KAM3 121307Z 18005KT M09/M12 A3019 RMK A01 T10931120  RH  080%=      5-min Rain = 0
KAM3 121308Z 18005KT M09/M12 A302 RMK A01 T10931120  RH  081%=      5-min Rain = 0
KAM3 121309Z 18005KT M09/M12 A302 RMK A01 T10931119  RH  081%=      5-min Rain = 0
KAM3 121310Z 18005KT M09/M12 A302 RMK A01 T10931119  RH  081%=      5-min Rain = 0
KAM3 121311Z 18006KT M09/M12 A302 RMK A01 T10921118  RH  082%=      5-min Rain = 0
KAM3 121312Z 19006KT M09/M12 A302 RMK A01 T10911116  RH  082%=      5-min Rain = 0
KAM3 121313Z 19006KT M09/M12 A302 RMK A01 T10901116  RH  081%=      5-min Rain = 0
KAM3 121314Z 19006KT M09/M12 A3019 RMK A01 T10891116  RH  081%=      5-min Rain = 0
KAM3 121315Z 19006KT M09/M12 A3019 RMK A01 T10881116  RH  081%=      5-min Rain = 0
KAM3 121316Z 19006KT M09/M12 A3019 RMK A01 T10871115  RH  080%=      5-min Rain = 0
KAM3 121317Z 19005KT M09/M12 A3019 RMK A01 T10871115  RH  080%=      5-min Rain = 0
KAM3 121318Z 19005KT M09/M12 A3019 RMK A01 T10871116  RH  080%=      5-min Rain = 0
KAM3 121319Z 19005KT M09/M12 A3019 RMK A01 T10871116  RH  080%=      5-min Rain = 0
KAM3 121320Z 18005KT M09/M12 A3019 RMK A01 T10881117  RH  079%=      5-min Rain = 0
KAM3 121321Z 18005KT M09/M12 A3019 RMK A01 T10891119  RH  079%=      5-min Rain = 0
KAM3 121322Z 18005KT M09/M12 A3019 RMK A01 T10901119  RH  080%=      5-min Rain = 0
KAM3 121323Z 17005KT M09/M12 A3019 RMK A01 T10911118  RH  080%=      5-min Rain = 0
KAM3 121324Z 17005KT M09/M12 A3019 RMK A01 T10891117  RH  081%=      5-min Rain = 0
KAM3 121325Z 16005KT M09/M12 A3019 RMK A01 T10891117  RH  080%=      5-min Rain = 0
KAM3 121326Z 16005KT M09/M12 A3019 RMK A01 T10891117  RH  080%=      5-min Rain = 0
KAM3 121327Z 16005KT M09/M12 A302 RMK A01 T10891118  RH  079%=      5-min Rain = 0
KAM3 121328Z 16005KT M09/M12 A302 RMK A01 T10901119  RH  080%=      5-min Rain = 0
KAM3 121329Z 17005KT M09/M12 A302 RMK A01 T10901118  RH  080%=      5-min Rain = 0
KAM3 121330Z 17005KT M09/M12 A302 RMK A01 T10901117  RH  080%=      5-min Rain = 0
KAM3 121331Z 18005KT M09/M12 A302 RMK A01 T10891117  RH  080%=      5-min Rain = 0
KAM3 121332Z 18005KT M09/M12 A302 RMK A01 T10891117  RH  080%=      5-min Rain = 0
KAM3 121333Z 18005KT M09/M12 A302 RMK A01 T10891117  RH  080%=      5-min Rain = 0
KAM3 121334Z 18005KT M09/M12 A302 RMK A01 T10881117  RH  080%=      5-min Rain = 0
KAM3 121335Z 18005KT M09/M12 A302 RMK A01 T10881117  RH  080%=      5-min Rain = 0
KAM3 121336Z 18005KT M09/M12 A302 RMK A01 T10881117  RH  080%=      5-min Rain = 0
KAM3 121337Z 18004KT M09/M12 A302 RMK A01 T10881117  RH  079%=      5-min Rain = 0
KAM3 121338Z 17004KT M09/M12 A302 RMK A01 T10891118  RH  079%=      5-min Rain = 0
KAM3 121339Z 16004KT M09/M12 A302 RMK A01 T10891118  RH  079%=      5-min Rain = 0
KAM3 121340Z 15005KT M09/M12 A302 RMK A01 T10891118  RH  079%=      5-min Rain = 0
KAM3 121341Z 15005KT M09/M12 A302 RMK A01 T10891118  RH  079%=      5-min Rain = 0
KAM3 121342Z 16005KT M09/M12 A3019 RMK A01 T10891118  RH  079%=      5-min Rain = 0
KAM3 121343Z 16005KT M09/M12 A3019 RMK A01 T10891118  RH  079%=      5-min Rain = 0
KAM3 121344Z 16005KT M09/M12 A3019 RMK A01 T10891118  RH  079%=      5-min Rain = 0
KAM3 121345Z 16005KT M09/M12 A3019 RMK A01 T10891119  RH  079%=      5-min Rain = 0
KAM3 121346Z 16006KT M09/M12 A3019 RMK A01 T10891119  RH  079%=      5-min Rain = 0
KAM3 121347Z 16006KT M09/M12 A3019 RMK A01 T10901119  RH  079%=      5-min Rain = 0
KAM3 121348Z 16007KT M09/M12 A3019 RMK A01 T10911119  RH  080%=      5-min Rain = 0
KAM3 121349Z 17007KT M09/M12 A3019 RMK A01 T10901119  RH  080%=      5-min Rain = 0
KAM3 121350Z 17008KT M09/M12 A3019 RMK A01 T10911119  RH  080%=      5-min Rain = 0
KAM3 121351Z 17008KT M09/M12 A3019 RMK A01 T10911119  RH  080%=      5-min Rain = 0
KAM3 121352Z 18008KT M09/M12 A3019 RMK A01 T10911119  RH  080%=      5-min Rain = 0
KAM3 121353Z 18008KT M09/M12 A3019 RMK A01 T10911119  RH  080%=      5-min Rain = 0
KAM3 121354Z 18008KT M09/M12 A3019 RMK A01 T10911119  RH  080%=      5-min Rain = 0
KAM3 121355Z 18008KT M09/M12 A3019 RMK A01 T10921119  RH  081%=      5-min Rain = 0
KAM3 121356Z 18007KT M09/M12 A3019 RMK A01 T10921120  RH  081%=      5-min Rain = 0
KAM3 121357Z 18006KT M09/M12 A3019 RMK A01 T10921119  RH  081%=      5-min Rain = 0
KAM3 121358Z 17006KT M09/M12 A3019 RMK A01 T10921119  RH  081%=      5-min Rain = 0
KAM3 121359Z 16005KT M09/M12 A3019 RMK A01 T10921119  RH  081%=      5-min Rain = 0
KAM3 121400Z 16005KT M09/M12 A3019 RMK A01 T10931119  RH  081%=      5-min Rain = 0
KAM3 121401Z 15005KT M09/M12 A3019 RMK A01 T10931119  RH  081%=      5-min Rain = 0
KAM3 121402Z 16006KT M09/M12 A3019 RMK A01 T10931119  RH  081%=      5-min Rain = 0
KAM3 121403Z 16006KT M09/M12 A3019 RMK A01 T10931119  RH  081%=      5-min Rain = 0
KAM3 121404Z 16006KT M09/M12 A3019 RMK A01 T10921118  RH  082%=      5-min Rain = 0
KAM3 121405Z 16006KT M09/M12 A302 RMK A01 T10911117  RH  082%=      5-min Rain = 0
KAM3 121406Z 16006KT M09/M12 A302 RMK A01 T10901116  RH  081%=      5-min Rain = 0
KAM3 121407Z 15007KT M09/M12 A302 RMK A01 T10891116  RH  081%=      5-min Rain = 0
KAM3 121408Z 15006KT M09/M12 A302 RMK A01 T10891118  RH  080%=      5-min Rain = 0
KAM3 121409Z 15006KT M09/M12 A302 RMK A01 T10911120  RH  079%=      5-min Rain = 0
KAM3 121410Z 16005KT M09/M12 A302 RMK A01 T10921121  RH  079%=      5-min Rain = 0
KAM3 121411Z 16006KT M09/M12 A302 RMK A01 T10921120  RH  080%=      5-min Rain = 0
KAM3 121412Z 16007KT M09/M12 A302 RMK A01 T10901118  RH  081%=      5-min Rain = 0
KAM3 121413Z 15007KT M09/M12 A302 RMK A01 T10891116  RH  081%=      5-min Rain = 0
KAM3 121414Z 15006KT M09/M12 A302 RMK A01 T10871116  RH  080%=      5-min Rain = 0
KAM3 121415Z 14006KT M09/M12 A302 RMK A01 T10861116  RH  079%=      5-min Rain = 0
KAM3 121416Z 14006KT M09/M12 A302 RMK A01 T10861116  RH  079%=      5-min Rain = 0
KAM3 121417Z 14006KT M09/M12 A302 RMK A01 T10851115  RH  079%=      5-min Rain = 0
KAM3 121418Z 14005KT M08/M11 A302 RMK A01 T10841114  RH  079%=      5-min Rain = 0
KAM3 121419Z 14005KT M08/M11 A302 RMK A01 T10821113  RH  078%=      5-min Rain = 0
KAM3 121420Z 14006KT M08/M11 A302 RMK A01 T10811114  RH  077%=      5-min Rain = 0
KAM3 121421Z 15006KT M08/M11 A302 RMK A01 T10811114  RH  077%=      5-min Rain = 0
KAM3 121422Z 15007KT M08/M11 A302 RMK A01 T10811113  RH  077%=      5-min Rain = 0
KAM3 121423Z 16007KT M08/M11 A302 RMK A01 T10801113  RH  077%=      5-min Rain = 0
KAM3 121424Z 17006KT M08/M11 A302 RMK A01 T10791113  RH  077%=      5-min Rain = 0
KAM3 121425Z 17006KT M08/M11 A302 RMK A01 T10791113  RH  076%=      5-min Rain = 0
KAM3 121426Z 17006KT M08/M11 A302 RMK A01 T10781114  RH  076%=      5-min Rain = 0
KAM3 121427Z 16006KT M08/M11 A302 RMK A01 T10781113  RH  076%=      5-min Rain = 0
KAM3 121428Z 16005KT M08/M11 A302 RMK A01 T10781113  RH  076%=      5-min Rain = 0
KAM3 121429Z 16005KT M08/M11 A302 RMK A01 T10771113  RH  076%=      5-min Rain = 0
KAM3 121430Z 16005KT M08/M11 A302 RMK A01 T10761112  RH  076%=      5-min Rain = 0
KAM3 121431Z 16006KT M08/M11 A302 RMK A01 T10751111  RH  075%=      5-min Rain = 0
KAM3 121432Z 16006KT M07/M11 A302 RMK A01 T10741111  RH  075%=      5-min Rain = 0
KAM3 121433Z 15006KT M07/M11 A302 RMK A01 T10731110  RH  075%=      5-min Rain = 0
KAM3 121434Z 15006KT M07/M11 A302 RMK A01 T10721110  RH  074%=      5-min Rain = 0
KAM3 121435Z 15005KT M07/M11 A302 RMK A01 T10721110  RH  074%=      5-min Rain = 0
KAM3 121436Z 14005KT M07/M11 A302 RMK A01 T10711109  RH  074%=      5-min Rain = 0
KAM3 121437Z 14005KT M07/M11 A302 RMK A01 T10701108  RH  074%=      5-min Rain = 0
KAM3 121438Z 14005KT M07/M11 A302 RMK A01 T10691107  RH  074%=      5-min Rain = 0
KAM3 121439Z 13005KT M07/M11 A302 RMK A01 T10681106  RH  074%=      5-min Rain = 0
KAM3 121440Z 14005KT M07/M11 A302 RMK A01 T10671105  RH  074%=      5-min Rain = 0
KAM3 121441Z 14006KT M07/M11 A302 RMK A01 T10661105  RH  074%=      5-min Rain = 0
KAM3 121442Z 14006KT M07/M11 A3019 RMK A01 T10661105  RH  074%=      5-min Rain = 0
KAM3 121443Z 14007KT M07/M11 A3019 RMK A01 T10651105  RH  073%=      5-min Rain = 0
KAM3 121444Z 14007KT M07/M11 A3019 RMK A01 T10651105  RH  073%=      5-min Rain = 0
KAM3 121445Z 14008KT M06/M10 A3019 RMK A01 T10641104  RH  073%=      5-min Rain = 0
KAM3 121446Z 16008KT M06/M10 A3019 RMK A01 T10631104  RH  073%=      5-min Rain = 0
KAM3 121447Z 16007KT M06/M10 A3019 RMK A01 T10621104  RH  072%=      5-min Rain = 0
KAM3 121448Z 16006KT M06/M10 A3019 RMK A01 T10611103  RH  072%=      5-min Rain = 0
KAM3 121449Z 15007KT M06/M10 A3019 RMK A01 T10601102  RH  072%=      5-min Rain = 0
KAM3 121450Z 15007KT M06/M10 A3019 RMK A01 T10591102  RH  071%=      5-min Rain = 0
KAM3 121451Z 15007KT M06/M10 A3019 RMK A01 T10581102  RH  071%=      5-min Rain = 0
KAM3 121452Z 15007KT M06/M10 A3019 RMK A01 T10561102  RH  070%=      5-min Rain = 0
KAM3 121453Z 15007KT M06/M10 A3019 RMK A01 T10561102  RH  070%=      5-min Rain = 0
KAM3 121454Z 14006KT M06/M10 A3019 RMK A01 T10551102  RH  070%=      5-min Rain = 0
KAM3 121455Z 14006KT M05/M10 A3019 RMK A01 T10541101  RH  070%=      5-min Rain = 0
KAM3 121456Z 14007KT M05/M10 A3019 RMK A01 T10531100  RH  070%=      5-min Rain = 0
KAM3 121457Z 14006KT M05/M10 A3019 RMK A01 T10521100  RH  069%=      5-min Rain = 0
KAM3 121458Z 15007KT M05/M10 A3019 RMK A01 T10521101  RH  068%=      5-min Rain = 0
KAM3 121459Z 15007KT M05/M10 A3019 RMK A01 T10511100  RH  068%=      5-min Rain = 0
KAM3 121500Z 15007KT M05/M10 A3019 RMK A01 T10491099  RH  068%=      5-min Rain = 0
KAM3 121501Z 14008KT M05/M10 A3019 RMK A01 T10481099  RH  067%=      5-min Rain = 0
KAM3 121502Z 14007KT M05/M10 A3019 RMK A01 T10471100  RH  067%=      5-min Rain = 0
KAM3 121503Z 14007KT M05/M10 A3019 RMK A01 T10471100  RH  067%=      5-min Rain = 0
KAM3 121504Z 15008KT M05/M10 A3019 RMK A01 T10461099  RH  067%=      5-min Rain = 0
KAM3 121505Z 15009KT M05/M10 A3019 RMK A01 T10461100  RH  066%=      5-min Rain = 0
KAM3 121506Z 15008KT M05/M10 A3019 RMK A01 T10461100  RH  066%=      5-min Rain = 0
KAM3 121507Z 15008KT M05/M10 A3019 RMK A01 T10461100  RH  066%=      5-min Rain = 0
KAM3 121508Z 15007KT M05/M10 A3019 RMK A01 T10461100  RH  066%=      5-min Rain = 0
KAM3 121509Z 15009KT M04/M10 A3019 RMK A01 T10441098  RH  066%=      5-min Rain = 0
KAM3 121510Z 15009KT M04/M10 A3019 RMK A01 T10431098  RH  066%=      5-min Rain = 0
KAM3 121511Z 16008KT M04/M10 A3019 RMK A01 T10431099  RH  065%=      5-min Rain = 0
KAM3 121512Z 16009KT M04/M10 A3019 RMK A01 T10421098  RH  065%=      5-min Rain = 0
KAM3 121513Z 16008KT M04/M10 A3019 RMK A01 T10411097  RH  065%=      5-min Rain = 0
KAM3 121514Z 16007KT M04/M10 A3019 RMK A01 T10391097  RH  064%=      5-min Rain = 0
KAM3 121515Z 16007KT M04/M10 A3019 RMK A01 T10371095  RH  064%=      5-min Rain = 0
KAM3 121516Z 16008KT M04/M09 A3019 RMK A01 T10351094  RH  064%=      5-min Rain = 0
KAM3 121517Z 16009KT M03/M09 A3019 RMK A01 T10341094  RH  063%=      5-min Rain = 0
KAM3 121518Z 16010KT M03/M09 A3019 RMK A01 T10321094  RH  062%=      5-min Rain = 0
KAM3 121519Z 16009KT M03/M09 A3019 RMK A01 T10301094  RH  061%=      5-min Rain = 0
KAM3 121520Z 17009KT M03/M09 A3019 RMK A01 T10281092  RH  061%=      5-min Rain = 0
KAM3 121521Z 18008KT M03/M09 A3019 RMK A01 T10251091  RH  060%=      5-min Rain = 0
KAM3 121522Z 18008KT M02/M09 A3019 RMK A01 T10231090  RH  060%=      5-min Rain = 0
KAM3 121523Z 18008KT M02/M09 A3019 RMK A01 T10211089  RH  059%=      5-min Rain = 0
KAM3 121524Z 18009KT M02/M09 A3019 RMK A01 T10181088  RH  059%=      5-min Rain = 0
KAM3 121525Z 18010KT M02/M09 A3019 RMK A01 T10151090  RH  057%=      5-min Rain = 0
KAM3 121526Z 18009KT M01/M09 A3019 RMK A01 T10141093  RH  055%=      5-min Rain = 0
KAM3 121527Z 17007KT M01/M09 A3019 RMK A01 T10131092  RH  055%=      5-min Rain = 0
KAM3 121528Z 17009KT M01/M09 A3019 RMK A01 T10111092  RH  054%=      5-min Rain = 0
KAM3 121529Z 17010KT M01/M09 A3019 RMK A01 T10091093  RH  053%=      5-min Rain = 0
KAM3 121530Z 17010KT M01/M09 A3019 RMK A01 T10081094  RH  052%=      5-min Rain = 0
KAM3 121531Z 17009KT M01/M09 A3019 RMK A01 T10071094  RH  052%=      5-min Rain = 0
KAM3 121532Z 17008KT M01/M09 A3019 RMK A01 T10061094  RH  052%=      5-min Rain = 0
KAM3 121533Z 18008KT M01/M09 A3019 RMK A01 T10051093  RH  052%=      5-min Rain = 0
KAM3 121534Z 18010KT M00/M09 A3019 RMK A01 T10031092  RH  051%=      5-min Rain = 0
KAM3 121535Z 18010KT M00/M09 A3019 RMK A01 T10021093  RH  050%=      5-min Rain = 0
KAM3 121536Z 18013KT 00/09 A3019 RMK A01 T00-00-93  RH  050%=      5-min Rain = 0
KAM3 121537Z 18011KT 00/M09 A3019 RMK A01 T00011094  RH  049%=      5-min Rain = 0
KAM3 121538Z 18010KT 00/M10 A3019 RMK A01 T00021095  RH  048%=      5-min Rain = 0
KAM3 121539Z 18011KT 00/M09 A3019 RMK A01 T00041093  RH  048%=      5-min Rain = 0
KAM3 121540Z 18013KT 01/M09 A3019 RMK A01 T00061093  RH  048%=      5-min Rain = 0
KAM3 121541Z 17013KT 01/M09 A3019 RMK A01 T00071094  RH  047%=      5-min Rain = 0
KAM3 121542Z 18016KT 01/M10 A3019 RMK A01 T00071096  RH  046%=      5-min Rain = 0
KAM3 121543Z 18014KT 01/M10 A3019 RMK A01 T00081097  RH  045%=      5-min Rain = 0
KAM3 121544Z 18011KT 01/M10 A3019 RMK A01 T00081096  RH  046%=      5-min Rain = 0
KAM3 121545Z 18013KT 01/M10 A3019 RMK A01 T00091095  RH  046%=      5-min Rain = 0
KAM3 121546Z 18017KT 01/M10 A3019 RMK A01 T00101096  RH  045%=      5-min Rain = 0
KAM3 121547Z 18016KT 01/M10 A3018 RMK A01 T00101098  RH  044%=      5-min Rain = 0
KAM3 121548Z 18016KT 01/M10 A3019 RMK A01 T00101098  RH  044%=      5-min Rain = 0
KAM3 121549Z 18015KT 01/M10 A3019 RMK A01 T00101097  RH  045%=      5-min Rain = 0
KAM3 121550Z 18017KT 01/M10 A3019 RMK A01 T00101097  RH  045%=      5-min Rain = 0
KAM3 121551Z 18015KT 01/M10 A3019 RMK A01 T00111098  RH  044%=      5-min Rain = 0
KAM3 121552Z 17014KT 01/M10 A3019 RMK A01 T00121096  RH  044%=      5-min Rain = 0
KAM3 121553Z 18016KT 01/M10 A3019 RMK A01 T00131096  RH  044%=      5-min Rain = 0
KAM3 121554Z 19014KT 01/M10 A3019 RMK A01 T00131097  RH  044%=      5-min Rain = 0
KAM3 121555Z 18012G18KT 01/M10 A3019 RMK A01 T00141096  RH  044%=      5-min Rain = 0
KAM3 121556Z 18017KT 02/M10 A3019 RMK A01 T00151095  RH  044%=      5-min Rain = 0
KAM3 121557Z 18015KT 02/M10 A3019 RMK A01 T00151096  RH  043%=      5-min Rain = 0
KAM3 121558Z 18015KT 02/M10 A3019 RMK A01 T00151096  RH  044%=      5-min Rain = 0
KAM3 121559Z 18012KT 02/M10 A3019 RMK A01 T00161095  RH  043%=      5-min Rain = 0
KAM3 121600Z 19013G19KT 02/M09 A3019 RMK A01 T00171094  RH  043%=      5-min Rain = 0
KAM3 121601Z 18014KT 02/M09 A3019 RMK A01 T00191094  RH  043%=      5-min Rain = 0
KAM3 121602Z 18017KT 02/M10 A3019 RMK A01 T00201095  RH  042%=      5-min Rain = 0
KAM3 121603Z 19018KT 02/M10 A3019 RMK A01 T00201097  RH  042%=      5-min Rain = 0
KAM3 121604Z 19017KT 02/M10 A3019 RMK A01 T00201098  RH  041%=      5-min Rain = 0
KAM3 121605Z 18017KT 02/M10 A3019 RMK A01 T00201098  RH  041%=      5-min Rain = 0
KAM3 121606Z 18013KT 02/M10 A3019 RMK A01 T00201098  RH  041%=      5-min Rain = 0
KAM3 121607Z 19016KT 02/M10 A3019 RMK A01 T00221096  RH  041%=      5-min Rain = 0
KAM3 121608Z 19014KT 02/M10 A3019 RMK A01 T00231097  RH  041%=      5-min Rain = 0
KAM3 121609Z 19016KT 02/M10 A3019 RMK A01 T00231098  RH  041%=      5-min Rain = 0
KAM3 121610Z 17012KT 02/M10 A3019 RMK A01 T00241096  RH  041%=      5-min Rain = 0
KAM3 121611Z 17016KT 03/M10 A3019 RMK A01 T00261095  RH  040%=      5-min Rain = 0
KAM3 121612Z 18012G19KT 03/M10 A3019 RMK A01 T00271095  RH  040%=      5-min Rain = 0
KAM3 121613Z 18017KT 03/M09 A3019 RMK A01 T00301094  RH  040%=      5-min Rain = 0
KAM3 121614Z 17016KT 03/M10 A3019 RMK A01 T00291097  RH  039%=      5-min Rain = 0
KAM3 121615Z 18017KT 03/M10 A3019 RMK A01 T00281097  RH  039%=      5-min Rain = 0
KAM3 121616Z 18018KT 03/M10 A3019 RMK A01 T00281098  RH  039%=      5-min Rain = 0
KAM3 121617Z 19017KT 03/M10 A3019 RMK A01 T00271098  RH  039%=      5-min Rain = 0
KAM3 121618Z 18013KT 03/M10 A3019 RMK A01 T00261097  RH  040%=      5-min Rain = 0
KAM3 121619Z 18015KT 03/M09 A3019 RMK A01 T00271094  RH  041%=      5-min Rain = 0
KAM3 121620Z 17015KT 03/M09 A3019 RMK A01 T00291094  RH  040%=      5-min Rain = 0
KAM3 121621Z 17016G22KT 03/M10 A3019 RMK A01 T00291095  RH  040%=      5-min Rain = 0
KAM3 121622Z 17016G22KT 03/M10 A3019 RMK A01 T00311095  RH  039%=      5-min Rain = 0
KAM3 121623Z 17018KT 03/M10 A3019 RMK A01 T00311096  RH  039%=      5-min Rain = 0
KAM3 121624Z 17017KT 03/M10 A3019 RMK A01 T00311095  RH  039%=      5-min Rain = 0
KAM3 121625Z 17017KT 03/M10 A3019 RMK A01 T00301096  RH  039%=      5-min Rain = 0
KAM3 121626Z 17012G20KT 03/M09 A3019 RMK A01 T00301094  RH  040%=      5-min Rain = 0
KAM3 121627Z 17014KT 03/M09 A3019 RMK A01 T00321092  RH  040%=      5-min Rain = 0
KAM3 121628Z 18014G19KT 03/M09 A3018 RMK A01 T00331094  RH  039%=      5-min Rain = 0
KAM3 121629Z 17012KT 03/M09 A3019 RMK A01 T00331093  RH  039%=      5-min Rain = 0
KAM3 121630Z 17016G21KT 04/M09 A3019 RMK A01 T00351092  RH  039%=      5-min Rain = 0
KAM3 121631Z 16013KT 04/M09 A3019 RMK A01 T00351094  RH  038%=      5-min Rain = 0
KAM3 121632Z 17013KT 03/M09 A3019 RMK A01 T00341092  RH  039%=      5-min Rain = 0
KAM3 121633Z 16012KT 03/M09 A3019 RMK A01 T00341091  RH  040%=      5-min Rain = 0
KAM3 121634Z 15015KT 04/M09 A3018 RMK A01 T00351090  RH  039%=      5-min Rain = 0
KAM3 121635Z 16016KT 04/M09 A3018 RMK A01 T00351091  RH  039%=      5-min Rain = 0
KAM3 121636Z 16015KT 03/M09 A3018 RMK A01 T00341092  RH  039%=      5-min Rain = 0
KAM3 121637Z 16016KT 03/M09 A3018 RMK A01 T00331092  RH  039%=      5-min Rain = 0
KAM3 121638Z 16016KT 03/M09 A3018 RMK A01 T00341092  RH  039%=      5-min Rain = 0
KAM3 121639Z 17016KT 04/M09 A3018 RMK A01 T00351093  RH  039%=      5-min Rain = 0
KAM3 121640Z 16018KT 04/M09 A3018 RMK A01 T00351093  RH  039%=      5-min Rain = 0
KAM3 121641Z 17016KT 03/M09 A3018 RMK A01 T00341092  RH  039%=      5-min Rain = 0
KAM3 121642Z 17015KT 04/M09 A3018 RMK A01 T00361092  RH  039%=      5-min Rain = 0
KAM3 121643Z 17015KT 04/M09 A3018 RMK A01 T00361092  RH  039%=      5-min Rain = 0
KAM3 121644Z 17014KT 04/M09 A3018 RMK A01 T00351093  RH  039%=      5-min Rain = 0
KAM3 121645Z 16015KT 04/M09 A3018 RMK A01 T00351093  RH  039%=      5-min Rain = 0
KAM3 121646Z 17014KT 04/M09 A3018 RMK A01 T00361092  RH  039%=      5-min Rain = 0
KAM3 121647Z 17011KT 04/M09 A3018 RMK A01 T00361092  RH  039%=      5-min Rain = 0
KAM3 121648Z 17014KT 04/M09 A3018 RMK A01 T00391089  RH  039%=      5-min Rain = 0
KAM3 121649Z 17017KT 04/M09 A3018 RMK A01 T00411091  RH  038%=      5-min Rain = 0
KAM3 121650Z 17015KT 04/M09 A3018 RMK A01 T00401092  RH  038%=      5-min Rain = 0
KAM3 121651Z 18016KT 04/M09 A3018 RMK A01 T00401092  RH  038%=      5-min Rain = 0
KAM3 121652Z 17015KT 04/M09 A3018 RMK A01 T00391093  RH  038%=      5-min Rain = 0
KAM3 121653Z 17016KT 04/M09 A3018 RMK A01 T00391093  RH  037%=      5-min Rain = 0
KAM3 121654Z 18014KT 04/M09 A3018 RMK A01 T00411091  RH  037%=      5-min Rain = 0
KAM3 121655Z 17015KT 04/M09 A3018 RMK A01 T00431091  RH  037%=      5-min Rain = 0
KAM3 121656Z 18014KT 04/M09 A3018 RMK A01 T00431094  RH  036%=      5-min Rain = 0
KAM3 121657Z 17015G20KT 04/M10 A3018 RMK A01 T00441095  RH  036%=      5-min Rain = 0
KAM3 121658Z 18015KT 05/M10 A3018 RMK A01 T00451097  RH  035%=      5-min Rain = 0
KAM3 121659Z 18012KT 05/M10 A3018 RMK A01 T00461097  RH  035%=      5-min Rain = 0
KAM3 121700Z 17014G19KT 05/M09 A3018 RMK A01 T00511093  RH  034%=      5-min Rain = 0
KAM3 121701Z 18015KT 05/M10 A3018 RMK A01 T00531096  RH  033%=      5-min Rain = 0
KAM3 121702Z 20016G21KT 05/M10 A3018 RMK A01 T00511098  RH  033%=      5-min Rain = 0
KAM3 121703Z 19018KT 05/M10 A3017 RMK A01 T00511097  RH  033%=      5-min Rain = 0
KAM3 121704Z 19016KT 05/M10 A3017 RMK A01 T00501098  RH  033%=      5-min Rain = 0
KAM3 121705Z 19019KT 05/M10 A3017 RMK A01 T00501098  RH  033%=      5-min Rain = 0
KAM3 121706Z 19017KT 05/M10 A3017 RMK A01 T00501098  RH  033%=      5-min Rain = 0
KAM3 121707Z 18016G22KT 05/M10 A3017 RMK A01 T00501097  RH  034%=      5-min Rain = 0
KAM3 121708Z 18015KT 05/M10 A3017 RMK A01 T00511097  RH  033%=      5-min Rain = 0
KAM3 121709Z 19016KT 05/M10 A3017 RMK A01 T00521096  RH  034%=      5-min Rain = 0
KAM3 121710Z 19016KT 05/M10 A3017 RMK A01 T00531096  RH  033%=      5-min Rain = 0
KAM3 121711Z 19014KT 05/M10 A3017 RMK A01 T00521096  RH  033%=      5-min Rain = 0
KAM3 121712Z 19013KT 05/M09 A3017 RMK A01 T00531094  RH  034%=      5-min Rain = 0
KAM3 121713Z 18020KT 06/M09 A3017 RMK A01 T00551093  RH  034%=      5-min Rain = 0
KAM3 121714Z 18018KT 05/M10 A3017 RMK A01 T00521096  RH  033%=      5-min Rain = 0
KAM3 121715Z 18019G24KT 05/M10 A3017 RMK A01 T00501096  RH  034%=      5-min Rain = 0
KAM3 121716Z 19020G25KT 05/M10 A3017 RMK A01 T00501095  RH  034%=      5-min Rain = 0
KAM3 121717Z 18016KT 05/M10 A3017 RMK A01 T00481096  RH  034%=      5-min Rain = 0
KAM3 121718Z 18018KT 05/M09 A3017 RMK A01 T00501094  RH  035%=      5-min Rain = 0
KAM3 121719Z 19019KT 05/M09 A3016 RMK A01 T00511093  RH  034%=      5-min Rain = 0
KAM3 121720Z 19020KT 05/M09 A3016 RMK A01 T00521094  RH  034%=      5-min Rain = 0
KAM3 121721Z 19018G23KT 05/M10 A3016 RMK A01 T00501095  RH  034%=      5-min Rain = 0
KAM3 121722Z 18018KT 05/M09 A3016 RMK A01 T00501094  RH  035%=      5-min Rain = 0
KAM3 121723Z 17019KT 05/M09 A3016 RMK A01 T00511093  RH  035%=      5-min Rain = 0
KAM3 121724Z 17019G24KT 05/M09 A3016 RMK A01 T00521093  RH  034%=      5-min Rain = 0
KAM3 121725Z 18016KT 05/M09 A3016 RMK A01 T00531093  RH  034%=      5-min Rain = 0
KAM3 121726Z 18017KT 05/M09 A3016 RMK A01 T00521093  RH  034%=      5-min Rain = 0
KAM3 121727Z 19016KT 05/M09 A3016 RMK A01 T00521093  RH  034%=      5-min Rain = 0
KAM3 121728Z 20020KT 05/M09 A3016 RMK A01 T00531094  RH  034%=      5-min Rain = 0
KAM3 121729Z 20020KT 05/M09 A3016 RMK A01 T00531094  RH  034%=      5-min Rain = 0
KAM3 121730Z 20017KT 05/M09 A3016 RMK A01 T00531094  RH  034%=      5-min Rain = 0
KAM3 121731Z 19016KT 05/M09 A3016 RMK A01 T00541093  RH  034%=      5-min Rain = 0
KAM3 121732Z 20019G24KT 06/M09 A3016 RMK A01 T00551092  RH  034%=      5-min Rain = 0
KAM3 121733Z 19017KT 06/M09 A3016 RMK A01 T00551093  RH  033%=      5-min Rain = 0
KAM3 121734Z 18016G23KT 06/M09 A3016 RMK A01 T00561092  RH  034%=      5-min Rain = 0
KAM3 121735Z 18021G26KT 06/M09 A3015 RMK A01 T00571093  RH  033%=      5-min Rain = 0
KAM3 121736Z 19017G22KT 06/M09 A3015 RMK A01 T00561094  RH  033%=      5-min Rain = 0
KAM3 121737Z 18018KT 06/M09 A3015 RMK A01 T00551093  RH  033%=      5-min Rain = 0
KAM3 121738Z 18017KT 06/M09 A3015 RMK A01 T00571093  RH  033%=      5-min Rain = 0
KAM3 121739Z 18019KT 06/M09 A3015 RMK A01 T00571093  RH  033%=      5-min Rain = 0
KAM3 121740Z 18019KT 06/M09 A3015 RMK A01 T00581093  RH  033%=      5-min Rain = 0
KAM3 121741Z 19022KT 06/M09 A3015 RMK A01 T00571094  RH  033%=      5-min Rain = 0
KAM3 121742Z 18018KT 06/M10 A3015 RMK A01 T00561095  RH  033%=      5-min Rain = 0
KAM3 121743Z 18020KT 06/M09 A3015 RMK A01 T00561094  RH  033%=      5-min Rain = 0
KAM3 121744Z 19018KT 06/M09 A3015 RMK A01 T00571094  RH  033%=      5-min Rain = 0
KAM3 121745Z 19019KT 06/M09 A3015 RMK A01 T00571094  RH  033%=      5-min Rain = 0
KAM3 121746Z 19019KT 06/M09 A3015 RMK A01 T00571094  RH  033%=      5-min Rain = 0
KAM3 121747Z 19017KT 06/M09 A3015 RMK A01 T00561093  RH  033%=      5-min Rain = 0
KAM3 121748Z 19016KT 06/M09 A3015 RMK A01 T00571093  RH  033%=      5-min Rain = 0
KAM3 121749Z 19018KT 06/M09 A3015 RMK A01 T00611090  RH  033%=      5-min Rain = 0
KAM3 121750Z 19018KT 06/M09 A3014 RMK A01 T00621092  RH  032%=      5-min Rain = 0
KAM3 121751Z 19015G20KT 06/M09 A3015 RMK A01 T00611092  RH  032%=      5-min Rain = 0
KAM3 121752Z 19020KT 06/M09 A3014 RMK A01 T00621091  RH  032%=      5-min Rain = 0
KAM3 121753Z 19018G23KT 06/M09 A3014 RMK A01 T00611092  RH  032%=      5-min Rain = 0
KAM3 121754Z 18016KT 06/M09 A3014 RMK A01 T00601093  RH  032%=      5-min Rain = 0
KAM3 121755Z 18018KT 06/M09 A3014 RMK A01 T00601092  RH  033%=      5-min Rain = 0
KAM3 121756Z 18020KT 06/M09 A3014 RMK A01 T00601092  RH  033%=      5-min Rain = 0
KAM3 121757Z 18018KT 06/M09 A3014 RMK A01 T00611092  RH  032%=      5-min Rain = 0
KAM3 121758Z 18016KT 06/M09 A3014 RMK A01 T00611092  RH  033%=      5-min Rain = 0
KAM3 121759Z 18020KT 06/M09 A3014 RMK A01 T00621091  RH  033%=      5-min Rain = 0
KAM3 121800Z 18021KT 06/M09 A3013 RMK A01 T00621092  RH  032%=      5-min Rain = 0
KAM3 121801Z 18020KT 06/M09 A3013 RMK A01 T00611092  RH  032%=      5-min Rain = 0
KAM3 121802Z 18017KT 06/M09 A3013 RMK A01 T00611092  RH  032%=      5-min Rain = 0
KAM3 121803Z 18018KT 06/M09 A3013 RMK A01 T00621091  RH  033%=      5-min Rain = 0
KAM3 121804Z 18017KT 06/M09 A3013 RMK A01 T00631091  RH  032%=      5-min Rain = 0
KAM3 121805Z 17020KT 06/M09 A3013 RMK A01 T00631090  RH  032%=      5-min Rain = 0
KAM3 121806Z 17015KT 06/M09 A3013 RMK A01 T00641090  RH  032%=      5-min Rain = 0
KAM3 121807Z 18017KT 07/M09 A3013 RMK A01 T00671088  RH  032%=      5-min Rain = 0
KAM3 121808Z 18019KT 07/M09 A3013 RMK A01 T00661089  RH  032%=      5-min Rain = 0
KAM3 121809Z 19019KT 07/M09 A3013 RMK A01 T00661090  RH  032%=      5-min Rain = 0
KAM3 121810Z 19019KT 07/M09 A3013 RMK A01 T00661089  RH  032%=      5-min Rain = 0
KAM3 121811Z 19017G23KT 07/M09 A3013 RMK A01 T00661089  RH  032%=      5-min Rain = 0
KAM3 121812Z 19020KT 07/M09 A3013 RMK A01 T00661089  RH  032%=      5-min Rain = 0
KAM3 121813Z 18017KT 07/M09 A3013 RMK A01 T00651089  RH  032%=      5-min Rain = 0
KAM3 121814Z 20016KT 06/M09 A3013 RMK A01 T00641088  RH  033%=      5-min Rain = 0
KAM3 121815Z 20018KT 07/M09 A3013 RMK A01 T00681086  RH  032%=      5-min Rain = 0
KAM3 121816Z 19016KT 07/M09 A3012 RMK A01 T00681088  RH  032%=      5-min Rain = 0
KAM3 121817Z 20015G20KT 07/M09 A3012 RMK A01 T00691087  RH  032%=      5-min Rain = 0
KAM3 121818Z 20019KT 07/M09 A3012 RMK A01 T00701088  RH  032%=      5-min Rain = 0
KAM3 121819Z 19014G19KT 07/M09 A3012 RMK A01 T00701088  RH  032%=      5-min Rain = 0
KAM3 121820Z 19014KT 07/M09 A3012 RMK A01 T00721087  RH  031%=      5-min Rain = 0
KAM3 121821Z 20018KT 07/M09 A3011 RMK A01 T00711088  RH  031%=      5-min Rain = 0
KAM3 121822Z 19017KT 07/M09 A3011 RMK A01 T00721088  RH  031%=      5-min Rain = 0
KAM3 121823Z 18018KT 07/M09 A3011 RMK A01 T00731087  RH  031%=      5-min Rain = 0
KAM3 121824Z 18015G21KT 07/M09 A3011 RMK A01 T00721088  RH  031%=      5-min Rain = 0
KAM3 121825Z 19016KT 07/M09 A3011 RMK A01 T00741086  RH  031%=      5-min Rain = 0
KAM3 121826Z 20015KT 08/M09 A3011 RMK A01 T00751087  RH  031%=      5-min Rain = 0
KAM3 121827Z 20018G23KT 08/M09 A3011 RMK A01 T00751087  RH  031%=      5-min Rain = 0
KAM3 121828Z 19017KT 08/M09 A3011 RMK A01 T00751087  RH  031%=      5-min Rain = 0
KAM3 121829Z 19015KT 07/M09 A3011 RMK A01 T00731089  RH  031%=      5-min Rain = 0
KAM3 121830Z 20015KT 07/M09 A3011 RMK A01 T00731089  RH  031%=      5-min Rain = 0
KAM3 121831Z 20016KT 08/M09 A3011 RMK A01 T00751087  RH  031%=      5-min Rain = 0
KAM3 121832Z 20017KT 08/M09 A3011 RMK A01 T00761087  RH  030%=      5-min Rain = 0
KAM3 121833Z 20020KT 08/M09 A3011 RMK A01 T00761088  RH  030%=      5-min Rain = 0
KAM3 121834Z 20017G22KT 08/M09 A3011 RMK A01 T00751088  RH  030%=      5-min Rain = 0
KAM3 121835Z 20015G21KT 08/M09 A3011 RMK A01 T00751088  RH  030%=      5-min Rain = 0
KAM3 121836Z 19015KT 08/M09 A3011 RMK A01 T00751088  RH  030%=      5-min Rain = 0
KAM3 121837Z 19015G20KT 08/M09 A3011 RMK A01 T00751088  RH  030%=      5-min Rain = 0
KAM3 121838Z 18013G19KT 08/M09 A3011 RMK A01 T00771086  RH  030%=      5-min Rain = 0
KAM3 121839Z 20016KT 08/M09 A3011 RMK A01 T00781086  RH  030%=      5-min Rain = 0
KAM3 121840Z 20016KT 08/M09 A3011 RMK A01 T00801085  RH  030%=      5-min Rain = 0
KAM3 121841Z 20016KT 08/M09 A3011 RMK A01 T00811085  RH  030%=      5-min Rain = 0
KAM3 121842Z 21016KT 08/M09 A3011 RMK A01 T00791087  RH  030%=      5-min Rain = 0
KAM3 121843Z 21016KT 08/M09 A3011 RMK A01 T00781087  RH  030%=      5-min Rain = 0
KAM3 121844Z 20016KT 08/M09 A3011 RMK A01 T00771086  RH  030%=      5-min Rain = 0
KAM3 121845Z 19017KT 08/M09 A3011 RMK A01 T00771086  RH  030%=      5-min Rain = 0
KAM3 121846Z 19016KT 08/M09 A3011 RMK A01 T00771087  RH  030%=      5-min Rain = 0
KAM3 121847Z 19016KT 08/M09 A301 RMK A01 T00761087  RH  030%=      5-min Rain = 0
KAM3 121848Z 20015KT 08/M09 A301 RMK A01 T00771086  RH  031%=      5-min Rain = 0
KAM3 121849Z 19015KT 08/M09 A301 RMK A01 T00791085  RH  030%=      5-min Rain = 0
KAM3 121850Z 19016KT 08/M08 A3011 RMK A01 T00821083  RH  030%=      5-min Rain = 0
KAM3 121851Z 19016KT 08/M08 A301 RMK A01 T00841084  RH  029%=      5-min Rain = 0
KAM3 121852Z 19016KT 08/M09 A3011 RMK A01 T00841086  RH  029%=      5-min Rain = 0
KAM3 121853Z 18014KT 08/M09 A301 RMK A01 T00831086  RH  029%=      5-min Rain = 0
KAM3 121854Z 19012G17KT 08/M09 A301 RMK A01 T00821086  RH  030%=      5-min Rain = 0
KAM3 121855Z 19013KT 08/M09 A301 RMK A01 T00831085  RH  030%=      5-min Rain = 0
KAM3 121856Z 20017KT 09/M08 A301 RMK A01 T00851084  RH  029%=      5-min Rain = 0
KAM3 121857Z 18013KT 08/M08 A301 RMK A01 T00841084  RH  029%=      5-min Rain = 0
KAM3 121858Z 18015KT 09/M09 A301 RMK A01 T00851085  RH  029%=      5-min Rain = 0
KAM3 121859Z 19014KT 08/M09 A301 RMK A01 T00841086  RH  029%=      5-min Rain = 0
KAM3 121900Z 18016KT 08/M09 A301 RMK A01 T00831085  RH  029%=      5-min Rain = 0
KAM3 121901Z 19016KT 09/M08 A301 RMK A01 T00851084  RH  029%=      5-min Rain = 0
KAM3 121902Z 20018KT 09/M08 A3009 RMK A01 T00861084  RH  029%=      5-min Rain = 0
KAM3 121903Z 19020KT 08/M09 A3009 RMK A01 T00841085  RH  029%=      5-min Rain = 0
KAM3 121904Z 20017KT 08/M09 A3009 RMK A01 T00821086  RH  029%=      5-min Rain = 0
KAM3 121905Z 20016KT 08/M09 A3009 RMK A01 T00811086  RH  029%=      5-min Rain = 0
KAM3 121906Z 20012G18KT 08/M09 A3009 RMK A01 T00831085  RH  030%=      5-min Rain = 0
KAM3 121907Z 20015KT 09/M08 A3009 RMK A01 T00871082  RH  029%=      5-min Rain = 0
KAM3 121908Z 19015KT 09/M08 A3009 RMK A01 T00881083  RH  029%=      5-min Rain = 0
KAM3 121909Z 20015G21KT 09/M08 A3009 RMK A01 T00871084  RH  029%=      5-min Rain = 0
KAM3 121910Z 20014KT 09/M08 A3009 RMK A01 T00871084  RH  029%=      5-min Rain = 0
KAM3 121911Z 19015KT 09/M08 A3009 RMK A01 T00871084  RH  029%=      5-min Rain = 0
KAM3 121912Z 19013KT 09/M08 A3009 RMK A01 T00871083  RH  029%=      5-min Rain = 0
KAM3 121913Z 19012KT 09/M08 A3009 RMK A01 T00871084  RH  029%=      5-min Rain = 0
KAM3 121914Z 19014KT 09/M08 A3009 RMK A01 T00891082  RH  029%=      5-min Rain = 0
KAM3 121915Z 18014KT 09/M08 A3009 RMK A01 T00901082  RH  029%=      5-min Rain = 0
KAM3 121916Z 18017KT 09/M08 A3009 RMK A01 T00911083  RH  028%=      5-min Rain = 0
KAM3 121917Z 18013KT 09/M09 A3009 RMK A01 T00891086  RH  028%=      5-min Rain = 0
KAM3 121918Z 18011KT 09/M09 A3009 RMK A01 T00881086  RH  028%=      5-min Rain = 0
KAM3 121919Z 18016KT 09/M08 A3008 RMK A01 T00911083  RH  028%=      5-min Rain = 0
KAM3 121920Z 18016KT 09/M09 A3008 RMK A01 T00921085  RH  028%=      5-min Rain = 0
KAM3 121921Z 17013KT 09/M09 A3008 RMK A01 T00911086  RH  028%=      5-min Rain = 0
KAM3 121922Z 19014KT 09/M09 A3008 RMK A01 T00901086  RH  028%=      5-min Rain = 0
KAM3 121923Z 19017KT 09/M08 A3008 RMK A01 T00931083  RH  028%=      5-min Rain = 0
KAM3 121924Z 19015KT 09/M09 A3008 RMK A01 T00921085  RH  028%=      5-min Rain = 0
KAM3 121925Z 19015KT 09/M09 A3008 RMK A01 T00911086  RH  028%=      5-min Rain = 0
KAM3 121926Z 18015KT 09/M09 A3008 RMK A01 T00911085  RH  028%=      5-min Rain = 0
KAM3 121927Z 18015KT 09/M08 A3008 RMK A01 T00921084  RH  028%=      5-min Rain = 0
KAM3 121928Z 19016KT 09/M09 A3008 RMK A01 T00921085  RH  028%=      5-min Rain = 0
KAM3 121929Z 19012KT 09/M09 A3008 RMK A01 T00921085  RH  028%=      5-min Rain = 0
KAM3 121930Z 19014KT 09/M08 A3008 RMK A01 T00931084  RH  028%=      5-min Rain = 0
KAM3 121931Z 19015KT 09/M08 A3008 RMK A01 T00941084  RH  028%=      5-min Rain = 0
KAM3 121932Z 20015KT 09/M08 A3008 RMK A01 T00941083  RH  028%=      5-min Rain = 0
KAM3 121933Z 21012KT 09/M08 A3008 RMK A01 T00931083  RH  028%=      5-min Rain = 0
KAM3 121934Z 20012KT 09/M08 A3008 RMK A01 T00931082  RH  028%=      5-min Rain = 0
KAM3 121935Z 19018KT 10/M08 A3008 RMK A01 T00961082  RH  028%=      5-min Rain = 0
KAM3 121941Z 18013KT 10/M08 A3008 RMK A01 T00961083  RH  028%=      5-min Rain = 0
KAM3 121942Z 19013KT 10/M08 A3008 RMK A01 T00971083  RH  027%=      5-min Rain = 0
KAM3 121943Z 17013KT 10/M08 A3008 RMK A01 T00961084  RH  027%=      5-min Rain = 0
KAM3 121944Z 20012KT 10/M08 A3008 RMK A01 T00971081  RH  028%=      5-min Rain = 0
KAM3 121945Z 19011KT 10/M08 A3008 RMK A01 T01001081  RH  027%=      5-min Rain = 0
KAM3 121946Z 18013KT 10/M08 A3008 RMK A01 T01001081  RH  027%=      5-min Rain = 0
KAM3 121947Z 17014KT 10/M08 A3008 RMK A01 T01021081  RH  027%=      5-min Rain = 0
KAM3 121948Z 19011KT 10/M08 A3008 RMK A01 T01021081  RH  027%=      5-min Rain = 0
KAM3 121949Z 21016KT 10/M08 A3008 RMK A01 T01041080  RH  027%=      5-min Rain = 0
KAM3 121950Z 20013KT 10/M08 A3008 RMK A01 T01021084  RH  026%=      5-min Rain = 0
KAM3 121951Z 19014KT 10/M08 A3008 RMK A01 T01011082  RH  027%=      5-min Rain = 0
KAM3 121952Z 20013KT 10/M08 A3008 RMK A01 T01031081  RH  027%=      5-min Rain = 0
KAM3 121953Z 20013KT 10/M08 A3008 RMK A01 T01021082  RH  027%=      5-min Rain = 0
KAM3 121954Z 18011KT 10/M08 A3007 RMK A01 T01021081  RH  027%=      5-min Rain = 0
KAM3 121955Z 18016KT 10/M08 A3007 RMK A01 T01021081  RH  027%=      5-min Rain = 0
KAM3 121956Z 19014KT 10/M08 A3007 RMK A01 T01021082  RH  027%=      5-min Rain = 0
KAM3 121957Z 19011KT 10/M08 A3008 RMK A01 T01001082  RH  027%=      5-min Rain = 0
KAM3 121958Z 18012KT 10/M08 A3008 RMK A01 T01011081  RH  027%=      5-min Rain = 0
KAM3 121959Z 18013G18KT 10/M08 A3007 RMK A01 T01011082  RH  027%=      5-min Rain = 0
KAM3 122000Z 18015KT 10/M08 A3007 RMK A01 T01011081  RH  027%=      5-min Rain = 0
KAM3 122001Z 19012KT 10/M08 A3007 RMK A01 T01031079  RH  027%=      5-min Rain = 0
KAM3 122002Z 20016KT 10/M08 A3007 RMK A01 T01041080  RH  027%=      5-min Rain = 0
KAM3 122003Z 20014KT 11/M08 A3007 RMK A01 T01051080  RH  026%=      5-min Rain = 0
KAM3 122004Z 18012KT 10/M08 A3007 RMK A01 T01041080  RH  027%=      5-min Rain = 0
KAM3 122005Z 19011KT 10/M08 A3007 RMK A01 T01041080  RH  027%=      5-min Rain = 0
KAM3 122006Z 19009KT 10/M08 A3007 RMK A01 T01041080  RH  027%=      5-min Rain = 0
KAM3 122007Z 19016KT 10/M08 A3007 RMK A01 T01041080  RH  027%=      5-min Rain = 0
KAM3 122008Z 19013KT 10/M08 A3007 RMK A01 T01031081  RH  027%=      5-min Rain = 0
KAM3 122009Z 18012KT 10/M08 A3007 RMK A01 T01021081  RH  027%=      5-min Rain = 0
KAM3 122010Z 20014KT 10/M08 A3007 RMK A01 T01021081  RH  027%=      5-min Rain = 0
KAM3 122011Z 19016KT 10/M08 A3007 RMK A01 T01021081  RH  027%=      5-min Rain = 0
KAM3 122012Z 18015KT 10/M08 A3007 RMK A01 T01021081  RH  027%=      5-min Rain = 0
KAM3 122013Z 18015KT 10/M08 A3007 RMK A01 T01011081  RH  027%=      5-min Rain = 0
KAM3 122014Z 17013KT 10/M08 A3007 RMK A01 T01011081  RH  027%=      5-min Rain = 0
KAM3 122015Z 18011KT 10/M08 A3007 RMK A01 T01021081  RH  027%=      5-min Rain = 0
KAM3 122016Z 17011G16KT 10/M08 A3007 RMK A01 T01031080  RH  027%=      5-min Rain = 0
KAM3 122017Z 17012KT 10/M08 A3007 RMK A01 T01041080  RH  027%=      5-min Rain = 0
KAM3 122018Z 19014G19KT 11/M08 A3007 RMK A01 T01061079  RH  026%=      5-min Rain = 0
KAM3 122019Z 20015KT 11/M08 A3007 RMK A01 T01071079  RH  026%=      5-min Rain = 0
KAM3 122020Z 19012KT 11/M08 A3006 RMK A01 T01051081  RH  026%=      5-min Rain = 0
KAM3 122021Z 20014KT 10/M08 A3006 RMK A01 T01041080  RH  027%=      5-min Rain = 0
KAM3 122022Z 19009KT 10/M08 A3006 RMK A01 T01041080  RH  027%=      5-min Rain = 0
KAM3 122023Z 17015KT 11/M08 A3006 RMK A01 T01091076  RH  026%=      5-min Rain = 0
KAM3 122024Z 17018KT 11/M08 A3006 RMK A01 T01101079  RH  026%=      5-min Rain = 0
KAM3 122025Z 18015KT 11/M08 A3006 RMK A01 T01071082  RH  026%=      5-min Rain = 0
KAM3 122026Z 20012KT 11/M08 A3006 RMK A01 T01061081  RH  026%=      5-min Rain = 0
KAM3 122027Z 20012KT 11/M08 A3006 RMK A01 T01081080  RH  026%=      5-min Rain = 0
KAM3 122028Z 19014KT 11/M08 A3006 RMK A01 T01081080  RH  026%=      5-min Rain = 0
KAM3 122029Z 18016G21KT 11/M08 A3006 RMK A01 T01081080  RH  026%=      5-min Rain = 0
KAM3 122030Z 17017KT 11/M08 A3006 RMK A01 T01091081  RH  026%=      5-min Rain = 0
KAM3 122031Z 18014KT 11/M08 A3006 RMK A01 T01071082  RH  026%=      5-min Rain = 0
KAM3 122032Z 18013KT 11/M08 A3006 RMK A01 T01061082  RH  026%=      5-min Rain = 0
KAM3 122033Z 17013KT 11/M08 A3006 RMK A01 T01051082  RH  026%=      5-min Rain = 0
KAM3 122034Z 18010G15KT 11/M08 A3006 RMK A01 T01061081  RH  026%=      5-min Rain = 0
KAM3 122035Z 17011KT 11/M08 A3006 RMK A01 T01071080  RH  026%=      5-min Rain = 0
KAM3 122036Z 17015KT 11/M08 A3006 RMK A01 T01101078  RH  026%=      5-min Rain = 0
KAM3 122037Z 19012KT 11/M08 A3006 RMK A01 T01121079  RH  025%=      5-min Rain = 0
KAM3 122038Z 19014KT 11/M08 A3006 RMK A01 T01111080  RH  025%=      5-min Rain = 0
KAM3 122039Z 18013KT 11/M08 A3006 RMK A01 T01111080  RH  025%=      5-min Rain = 0
KAM3 122040Z 17014KT 11/M08 A3006 RMK A01 T01121079  RH  025%=      5-min Rain = 0
KAM3 122041Z 17014KT 11/M08 A3006 RMK A01 T01141079  RH  025%=      5-min Rain = 0
KAM3 122042Z 18013KT 11/M08 A3006 RMK A01 T01131080  RH  025%=      5-min Rain = 0
KAM3 122043Z 18013KT 11/M08 A3006 RMK A01 T01121080  RH  025%=      5-min Rain = 0
KAM3 122044Z 17016KT 11/M08 A3006 RMK A01 T01121079  RH  025%=      5-min Rain = 0
KAM3 122045Z 17013KT 11/M08 A3006 RMK A01 T01111079  RH  025%=      5-min Rain = 0
KAM3 122046Z 17013KT 11/M08 A3006 RMK A01 T01111079  RH  026%=      5-min Rain = 0
KAM3 122047Z 17011KT 11/M08 A3006 RMK A01 T01131078  RH  026%=      5-min Rain = 0
KAM3 122048Z 18013G18KT 12/M08 A3006 RMK A01 T01161076  RH  025%=      5-min Rain = 0
KAM3 122049Z 18014KT 12/M08 A3006 RMK A01 T01161077  RH  025%=      5-min Rain = 0
KAM3 122050Z 17017KT 11/M08 A3006 RMK A01 T01141078  RH  025%=      5-min Rain = 0
KAM3 122051Z 19015KT 11/M08 A3006 RMK A01 T01131078  RH  025%=      5-min Rain = 0
KAM3 122052Z 19014KT 11/M08 A3006 RMK A01 T01141077  RH  026%=      5-min Rain = 0
KAM3 122053Z 18015G21KT 11/M08 A3006 RMK A01 T01141077  RH  026%=      5-min Rain = 0
KAM3 122054Z 18015KT 11/M08 A3006 RMK A01 T01141077  RH  025%=      5-min Rain = 0
KAM3 122055Z 18012KT 11/M08 A3006 RMK A01 T01141077  RH  025%=      5-min Rain = 0
KAM3 122056Z 18013KT 11/M08 A3006 RMK A01 T01141077  RH  026%=      5-min Rain = 0
KAM3 122057Z 17011KT 11/M08 A3006 RMK A01 T01131077  RH  026%=      5-min Rain = 0
KAM3 122058Z 18011KT 11/M08 A3006 RMK A01 T01131076  RH  026%=      5-min Rain = 0
KAM3 122059Z 18010KT 11/M08 A3006 RMK A01 T01141076  RH  026%=      5-min Rain = 0
KAM3 122100Z 17014KT 12/M08 A3006 RMK A01 T01171075  RH  025%=      5-min Rain = 0
KAM3 122101Z 17012KT 12/M08 A3006 RMK A01 T01171076  RH  025%=      5-min Rain = 0
KAM3 122102Z 18014KT 12/M08 A3006 RMK A01 T01171075  RH  025%=      5-min Rain = 0
KAM3 122103Z 18011KT 12/M08 A3006 RMK A01 T01151076  RH  025%=      5-min Rain = 0
KAM3 122104Z 18014KT 12/M08 A3006 RMK A01 T01151075  RH  026%=      5-min Rain = 0
KAM3 122105Z 18014KT 12/M08 A3006 RMK A01 T01161075  RH  026%=      5-min Rain = 0
KAM3 122106Z 21013KT 12/M08 A3006 RMK A01 T01151075  RH  026%=      5-min Rain = 0
KAM3 122107Z 19011KT 12/M08 A3006 RMK A01 T01151075  RH  026%=      5-min Rain = 0
KAM3 122108Z 20015KT 12/M08 A3006 RMK A01 T01151075  RH  026%=      5-min Rain = 0
KAM3 122109Z 19013KT 12/M08 A3006 RMK A01 T01151075  RH  026%=      5-min Rain = 0
KAM3 122110Z 19010KT 11/M08 A3006 RMK A01 T01131076  RH  026%=      5-min Rain = 0
KAM3 122111Z 18012KT 11/M08 A3006 RMK A01 T01131075  RH  026%=      5-min Rain = 0
KAM3 122112Z 18015KT 11/M08 A3006 RMK A01 T01141076  RH  026%=      5-min Rain = 0
KAM3 122113Z 18012KT 11/M08 A3006 RMK A01 T01131076  RH  026%=      5-min Rain = 0
KAM3 122114Z 18011KT 11/M08 A3006 RMK A01 T01141075  RH  026%=      5-min Rain = 0
KAM3 122115Z 17010KT 12/M08 A3006 RMK A01 T01151075  RH  026%=      5-min Rain = 0
KAM3 122116Z 18012KT 12/M08 A3006 RMK A01 T01151075  RH  026%=      5-min Rain = 0
KAM3 122117Z 17011KT 12/M08 A3006 RMK A01 T01151075  RH  026%=      5-min Rain = 0
KAM3 122118Z 16015KT 12/M08 A3006 RMK A01 T01161075  RH  026%=      5-min Rain = 0
KAM3 122119Z 17012KT 12/M08 A3006 RMK A01 T01171075  RH  025%=      5-min Rain = 0
KAM3 122120Z 17011KT 12/M08 A3006 RMK A01 T01161076  RH  025%=      5-min Rain = 0
KAM3 122121Z 17012KT 12/M08 A3006 RMK A01 T01161075  RH  025%=      5-min Rain = 0
KAM3 122122Z 17013KT 12/M07 A3006 RMK A01 T01181074  RH  025%=      5-min Rain = 0
KAM3 122123Z 18012KT 12/M07 A3006 RMK A01 T01171074  RH  026%=      5-min Rain = 0
KAM3 122124Z 17009KT 12/M07 A3006 RMK A01 T01171074  RH  026%=      5-min Rain = 0
KAM3 122125Z 17010KT 12/M07 A3006 RMK A01 T01191073  RH  025%=      5-min Rain = 0
KAM3 122126Z 17013KT 12/M08 A3006 RMK A01 T01201075  RH  025%=      5-min Rain = 0
KAM3 122127Z 17013KT 12/M08 A3006 RMK A01 T01201075  RH  025%=      5-min Rain = 0
KAM3 122128Z 17012KT 12/M07 A3006 RMK A01 T01181074  RH  025%=      5-min Rain = 0
KAM3 122129Z 18013KT 12/M07 A3006 RMK A01 T01191073  RH  025%=      5-min Rain = 0
KAM3 122130Z 18011KT 12/M07 A3006 RMK A01 T01201074  RH  025%=      5-min Rain = 0
KAM3 122131Z 18010KT 12/M07 A3006 RMK A01 T01191074  RH  025%=      5-min Rain = 0
KAM3 122132Z 16010KT 12/M07 A3006 RMK A01 T01191074  RH  025%=      5-min Rain = 0
KAM3 122133Z 16011KT 12/M07 A3006 RMK A01 T01181074  RH  025%=      5-min Rain = 0
KAM3 122134Z 17011KT 12/M07 A3006 RMK A01 T01181074  RH  025%=      5-min Rain = 0
KAM3 122135Z 17013KT 12/M07 A3006 RMK A01 T01191074  RH  025%=      5-min Rain = 0
KAM3 122136Z 18011KT 12/M07 A3006 RMK A01 T01191073  RH  025%=      5-min Rain = 0
KAM3 122137Z 17009KT 12/M07 A3006 RMK A01 T01191073  RH  025%=      5-min Rain = 0
KAM3 122138Z 17010KT 12/M07 A3006 RMK A01 T01201073  RH  025%=      5-min Rain = 0
KAM3 122139Z 18011KT 12/M07 A3006 RMK A01 T01211073  RH  025%=      5-min Rain = 0
KAM3 122140Z 16008KT 12/M07 A3007 RMK A01 T01211073  RH  025%=      5-min Rain = 0
KAM3 122141Z 17012KT 12/M07 A3006 RMK A01 T01231073  RH  025%=      5-min Rain = 0
KAM3 122142Z 17012KT 12/M07 A3006 RMK A01 T01231074  RH  025%=      5-min Rain = 0
KAM3 122143Z 17010KT 12/M07 A3006 RMK A01 T01221074  RH  025%=      5-min Rain = 0
KAM3 122144Z 16011KT 12/M07 A3006 RMK A01 T01221073  RH  025%=      5-min Rain = 0
KAM3 122145Z 16010KT 12/M07 A3007 RMK A01 T01211074  RH  025%=      5-min Rain = 0
KAM3 122146Z 18010KT 12/M07 A3007 RMK A01 T01201074  RH  025%=      5-min Rain = 0
KAM3 122147Z 16011KT 12/M07 A3007 RMK A01 T01201073  RH  025%=      5-min Rain = 0
KAM3 122148Z 17012KT 12/M07 A3007 RMK A01 T01231073  RH  025%=      5-min Rain = 0
KAM3 122149Z 18009KT 12/M07 A3007 RMK A01 T01231074  RH  025%=      5-min Rain = 0
KAM3 122150Z 17010G16KT 12/M07 A3007 RMK A01 T01221074  RH  025%=      5-min Rain = 0
KAM3 122151Z 17014KT 12/M07 A3007 RMK A01 T01231074  RH  025%=      5-min Rain = 0
KAM3 122152Z 18011KT 12/M07 A3007 RMK A01 T01221074  RH  025%=      5-min Rain = 0
KAM3 122153Z 17010KT 12/M07 A3007 RMK A01 T01221073  RH  025%=      5-min Rain = 0
KAM3 122154Z 17012KT 12/M07 A3007 RMK A01 T01231073  RH  025%=      5-min Rain = 0
KAM3 122155Z 16011KT 12/M07 A3007 RMK A01 T01231074  RH  025%=      5-min Rain = 0
KAM3 122156Z 17010KT 12/M07 A3007 RMK A01 T01221074  RH  025%=      5-min Rain = 0
KAM3 122157Z 19010KT 12/M07 A3007 RMK A01 T01211074  RH  025%=      5-min Rain = 0
KAM3 122158Z 17012KT 12/M07 A3007 RMK A01 T01211074  RH  025%=      5-min Rain = 0
KAM3 122159Z 18012KT 12/M07 A3007 RMK A01 T01221074  RH  025%=      5-min Rain = 0
KAM3 122200Z 16011KT 12/M08 A3007 RMK A01 T01211075  RH  025%=      5-min Rain = 0
KAM3 122201Z 16010KT 12/M07 A3007 RMK A01 T01211074  RH  025%=      5-min Rain = 0
KAM3 122202Z 17011KT 12/M07 A3007 RMK A01 T01211074  RH  025%=      5-min Rain = 0
KAM3 122203Z 17013KT 12/M07 A3007 RMK A01 T01221074  RH  025%=      5-min Rain = 0
KAM3 122204Z 18010KT 12/M07 A3007 RMK A01 T01221074  RH  025%=      5-min Rain = 0
KAM3 122205Z 18011KT 12/M07 A3007 RMK A01 T01221074  RH  025%=      5-min Rain = 0
KAM3 122206Z 17013KT 12/M07 A3007 RMK A01 T01221074  RH  025%=      5-min Rain = 0
KAM3 122207Z 17010KT 12/M08 A3007 RMK A01 T01211075  RH  025%=      5-min Rain = 0
KAM3 122208Z 18012KT 12/M08 A3007 RMK A01 T01211075  RH  025%=      5-min Rain = 0
KAM3 122209Z 16012KT 12/M07 A3007 RMK A01 T01221074  RH  025%=      5-min Rain = 0
KAM3 122210Z 16013KT 12/M08 A3007 RMK A01 T01211075  RH  025%=      5-min Rain = 0
KAM3 122211Z 16013KT 12/M08 A3007 RMK A01 T01201076  RH  025%=      5-min Rain = 0
KAM3 122212Z 16012KT 12/M08 A3007 RMK A01 T01201077  RH  025%=      5-min Rain = 0
KAM3 122213Z 17011KT 12/M08 A3007 RMK A01 T01201077  RH  025%=      5-min Rain = 0
KAM3 122214Z 18012KT 12/M08 A3007 RMK A01 T01201077  RH  024%=      5-min Rain = 0
KAM3 122215Z 17009KT 12/M08 A3007 RMK A01 T01191077  RH  025%=      5-min Rain = 0
KAM3 122216Z 17010KT 12/M08 A3008 RMK A01 T01201075  RH  025%=      5-min Rain = 0
KAM3 122217Z 17010KT 12/M08 A3008 RMK A01 T01211076  RH  025%=      5-min Rain = 0
KAM3 122218Z 17010KT 12/M08 A3007 RMK A01 T01211076  RH  024%=      5-min Rain = 0
KAM3 122219Z 17012KT 12/M08 A3007 RMK A01 T01211076  RH  024%=      5-min Rain = 0
KAM3 122220Z 17012KT 12/M08 A3007 RMK A01 T01211076  RH  024%=      5-min Rain = 0
KAM3 122221Z 16012KT 12/M08 A3008 RMK A01 T01211077  RH  024%=      5-min Rain = 0
KAM3 122222Z 16009KT 12/M08 A3008 RMK A01 T01201077  RH  024%=      5-min Rain = 0
KAM3 122223Z 17011KT 12/M08 A3008 RMK A01 T01211076  RH  024%=      5-min Rain = 0
KAM3 122224Z 17011KT 12/M08 A3008 RMK A01 T01211077  RH  024%=      5-min Rain = 0
KAM3 122225Z 17010KT 12/M08 A3008 RMK A01 T01211077  RH  024%=      5-min Rain = 0
KAM3 122226Z 16010KT 12/M08 A3008 RMK A01 T01211077  RH  024%=      5-min Rain = 0
KAM3 122227Z 16007KT 12/M08 A3008 RMK A01 T01211076  RH  024%=      5-min Rain = 0
KAM3 122228Z 16010KT 12/M08 A3008 RMK A01 T01211076  RH  024%=      5-min Rain = 0
KAM3 122229Z 16010KT 12/M08 A3008 RMK A01 T01221076  RH  024%=      5-min Rain = 0
KAM3 122230Z 16011KT 12/M08 A3008 RMK A01 T01221077  RH  024%=      5-min Rain = 0
KAM3 122231Z 16011KT 12/M08 A3009 RMK A01 T01211077  RH  024%=      5-min Rain = 0
KAM3 122232Z 15010KT 12/M08 A3009 RMK A01 T01201077  RH  024%=      5-min Rain = 0
KAM3 122233Z 14011KT 12/M08 A3009 RMK A01 T01201077  RH  024%=      5-min Rain = 0
KAM3 122234Z 14010KT 12/M08 A3009 RMK A01 T01201077  RH  024%=      5-min Rain = 0
KAM3 122235Z 14010KT 12/M08 A3009 RMK A01 T01191077  RH  025%=      5-min Rain = 0
KAM3 122236Z 13008KT 12/M08 A3009 RMK A01 T01191078  RH  025%=      5-min Rain = 0
KAM3 122237Z 14008KT 12/M08 A3009 RMK A01 T01181078  RH  025%=      5-min Rain = 0
KAM3 122238Z 15009KT 12/M08 A3009 RMK A01 T01191078  RH  025%=      5-min Rain = 0
KAM3 122239Z 16010KT 12/M08 A3009 RMK A01 T01191078  RH  024%=      5-min Rain = 0
KAM3 122240Z 14007KT 12/M08 A3009 RMK A01 T01191078  RH  024%=      5-min Rain = 0
KAM3 122241Z 13008KT 12/M08 A3009 RMK A01 T01201077  RH  025%=      5-min Rain = 0
KAM3 122242Z 13009KT 12/M08 A3009 RMK A01 T01211077  RH  024%=      5-min Rain = 0
KAM3 122243Z 14008KT 12/M08 A3009 RMK A01 T01211076  RH  024%=      5-min Rain = 0
KAM3 122244Z 14009KT 12/M08 A3009 RMK A01 T01211077  RH  024%=      5-min Rain = 0
KAM3 122245Z 14010KT 12/M08 A301 RMK A01 T01211077  RH  024%=      5-min Rain = 0
KAM3 122246Z 14009KT 12/M08 A301 RMK A01 T01211077  RH  024%=      5-min Rain = 0
KAM3 122247Z 13007KT 12/M08 A301 RMK A01 T01211077  RH  024%=      5-min Rain = 0
KAM3 122248Z 13010KT 12/M08 A301 RMK A01 T01211076  RH  024%=      5-min Rain = 0
KAM3 122249Z 13011KT 12/M08 A301 RMK A01 T01211077  RH  024%=      5-min Rain = 0
KAM3 122250Z 13009KT 12/M08 A301 RMK A01 T01201079  RH  024%=      5-min Rain = 0
KAM3 122251Z 13009KT 12/M08 A301 RMK A01 T01191079  RH  024%=      5-min Rain = 0
KAM3 122252Z 13008KT 12/M08 A301 RMK A01 T01171077  RH  025%=      5-min Rain = 0
KAM3 122253Z 12008KT 12/M08 A301 RMK A01 T01161077  RH  025%=      5-min Rain = 0
KAM3 122254Z 12008KT 12/M08 A301 RMK A01 T01151077  RH  025%=      5-min Rain = 0
KAM3 122255Z 12010KT 11/M08 A3011 RMK A01 T01141076  RH  026%=      5-min Rain = 0
KAM3 122256Z 14011KT 11/M08 A3011 RMK A01 T01141076  RH  026%=      5-min Rain = 0
KAM3 122257Z 14010KT 11/M08 A3011 RMK A01 T01141076  RH  026%=      5-min Rain = 0
KAM3 122258Z 14008KT 11/M08 A3011 RMK A01 T01141076  RH  026%=      5-min Rain = 0
KAM3 122259Z 15008KT 12/M08 A3011 RMK A01 T01151076  RH  026%=      5-min Rain = 0
KAM3 122300Z 15009KT 12/M08 A3011 RMK A01 T01161076  RH  025%=      5-min Rain = 0
KAM3 122301Z 14009KT 12/M08 A3011 RMK A01 T01171075  RH  025%=      5-min Rain = 0
KAM3 122302Z 14008KT 12/M08 A3011 RMK A01 T01161076  RH  025%=      5-min Rain = 0
KAM3 122303Z 12008KT 12/M08 A3011 RMK A01 T01171076  RH  025%=      5-min Rain = 0
KAM3 122304Z 13008KT 12/M08 A3011 RMK A01 T01161076  RH  025%=      5-min Rain = 0
KAM3 122305Z 12008KT 12/M08 A3012 RMK A01 T01161076  RH  025%=      5-min Rain = 0
KAM3 122306Z 13008KT 12/M08 A3012 RMK A01 T01161077  RH  025%=      5-min Rain = 0
KAM3 122307Z 13008KT 12/M08 A3012 RMK A01 T01151077  RH  025%=      5-min Rain = 0
KAM3 122308Z 12008KT 11/M08 A3012 RMK A01 T01141077  RH  025%=      5-min Rain = 0
KAM3 122309Z 13008KT 11/M08 A3012 RMK A01 T01141077  RH  025%=      5-min Rain = 0
KAM3 122310Z 12007KT 11/M08 A3012 RMK A01 T01141077  RH  026%=      5-min Rain = 0
KAM3 122311Z 13008KT 11/M08 A3012 RMK A01 T01141076  RH  026%=      5-min Rain = 0
KAM3 122312Z 13008KT 11/M08 A3012 RMK A01 T01141076  RH  026%=      5-min Rain = 0
KAM3 122313Z 13007KT 11/M08 A3012 RMK A01 T01131077  RH  026%=      5-min Rain = 0
KAM3 122314Z 13007KT 11/M08 A3012 RMK A01 T01131077  RH  026%=      5-min Rain = 0
KAM3 122315Z 12006KT 11/M08 A3012 RMK A01 T01131077  RH  026%=      5-min Rain = 0
KAM3 122316Z 12008KT 11/M08 A3012 RMK A01 T01131077  RH  026%=      5-min Rain = 0
KAM3 122317Z 12009KT 11/M08 A3012 RMK A01 T01121078  RH  026%=      5-min Rain = 0
KAM3 122318Z 12010KT 11/M08 A3012 RMK A01 T01111078  RH  026%=      5-min Rain = 0
KAM3 122319Z 11009KT 11/M08 A3012 RMK A01 T01111077  RH  026%=      5-min Rain = 0
KAM3 122320Z 11010KT 11/M08 A3012 RMK A01 T01101077  RH  026%=      5-min Rain = 0
KAM3 122321Z 12010KT 11/M08 A3012 RMK A01 T01101077  RH  026%=      5-min Rain = 0
KAM3 122322Z 12009KT 11/M08 A3012 RMK A01 T01091077  RH  026%=      5-min Rain = 0
KAM3 122323Z 11008KT 11/M08 A3012 RMK A01 T01081077  RH  026%=      5-min Rain = 0
KAM3 122324Z 12008KT 11/M08 A3012 RMK A01 T01081077  RH  027%=      5-min Rain = 0
KAM3 122325Z 12009KT 11/M08 A3013 RMK A01 T01071077  RH  027%=      5-min Rain = 0
KAM3 122326Z 11010KT 11/M08 A3013 RMK A01 T01061077  RH  027%=      5-min Rain = 0
KAM3 122327Z 12009KT 11/M08 A3013 RMK A01 T01061078  RH  027%=      5-min Rain = 0
KAM3 122328Z 12010KT 11/M08 A3013 RMK A01 T01051077  RH  027%=      5-min Rain = 0
KAM3 122329Z 12010KT 10/M08 A3013 RMK A01 T01041078  RH  027%=      5-min Rain = 0
KAM3 122330Z 12009KT 10/M08 A3013 RMK A01 T01041078  RH  027%=      5-min Rain = 0
KAM3 122331Z 12009KT 10/M08 A3013 RMK A01 T01041078  RH  027%=      5-min Rain = 0
KAM3 122332Z 12009KT 10/M08 A3013 RMK A01 T01031079  RH  027%=      5-min Rain = 0
KAM3 122333Z 12009KT 10/M08 A3013 RMK A01 T01021080  RH  027%=      5-min Rain = 0
KAM3 122334Z 13009KT 10/M08 A3013 RMK A01 T01021079  RH  027%=      5-min Rain = 0
KAM3 122335Z 12010KT 10/M08 A3013 RMK A01 T01021079  RH  027%=      5-min Rain = 0
KAM3 122336Z 12008KT 10/M08 A3013 RMK A01 T01021079  RH  027%=      5-min Rain = 0
KAM3 122337Z 13008KT 10/M08 A3013 RMK A01 T01011080  RH  027%=      5-min Rain = 0
KAM3 122338Z 13007KT 10/M08 A3013 RMK A01 T01001080  RH  027%=      5-min Rain = 0
KAM3 122339Z 13010KT 10/M08 A3013 RMK A01 T01001080  RH  027%=      5-min Rain = 0
KAM3 122340Z 13009KT 10/M08 A3013 RMK A01 T01001080  RH  027%=      5-min Rain = 0
KAM3 122341Z 12009KT 10/M08 A3013 RMK A01 T00991080  RH  027%=      5-min Rain = 0
KAM3 122342Z 12008KT 10/M08 A3014 RMK A01 T00991081  RH  027%=      5-min Rain = 0
KAM3 122343Z 12007KT 10/M08 A3014 RMK A01 T00981081  RH  027%=      5-min Rain = 0
KAM3 122344Z 12010KT 10/M08 A3014 RMK A01 T00971081  RH  028%=      5-min Rain = 0
KAM3 122345Z 11009KT 10/M08 A3014 RMK A01 T00961081  RH  028%=      5-min Rain = 0
KAM3 122346Z 11008KT 10/M08 A3014 RMK A01 T00961081  RH  028%=      5-min Rain = 0
KAM3 122347Z 11009KT 10/M08 A3014 RMK A01 T00951081  RH  028%=      5-min Rain = 0
KAM3 122348Z 11009KT 09/M08 A3014 RMK A01 T00941081  RH  028%=      5-min Rain = 0
KAM3 122349Z 12009KT 09/M08 A3014 RMK A01 T00931081  RH  028%=      5-min Rain = 0
KAM3 122350Z 11009KT 09/M08 A3014 RMK A01 T00931081  RH  029%=      5-min Rain = 0
KAM3 122351Z 11009KT 09/M08 A3014 RMK A01 T00931081  RH  029%=      5-min Rain = 0
KAM3 122352Z 12009KT 09/M08 A3014 RMK A01 T00931080  RH  029%=      5-min Rain = 0
KAM3 122353Z 12008KT 09/M08 A3015 RMK A01 T00931080  RH  029%=      5-min Rain = 0
KAM3 122354Z 12008KT 09/M08 A3015 RMK A01 T00921082  RH  028%=      5-min Rain = 0
KAM3 122355Z 11008KT 09/M08 A3015 RMK A01 T00921082  RH  029%=      5-min Rain = 0
KAM3 122356Z 11008KT 09/M08 A3015 RMK A01 T00911081  RH  029%=      5-min Rain = 0
KAM3 122357Z 11009KT 09/M08 A3015 RMK A01 T00911081  RH  029%=      5-min Rain = 0
KAM3 122358Z 11009KT 09/M08 A3015 RMK A01 T00911081  RH  029%=      5-min Rain = 0
KAM3 122359Z 11007KT 09/M08 A3015 RMK A01 T00901081  RH  029%=      5-min Rain = 0
KAM3 130000Z 11007KT 09/M08 A3016 RMK A01 T00901082  RH  029%=      5-min Rain = 0
KAM3 130001Z 11008KT 09/M08 A3016 RMK A01 T00881082  RH  029%=      5-min Rain = 0
KAM3 130002Z 11008KT 09/M08 A3016 RMK A01 T00871082  RH  029%=      5-min Rain = 0
KAM3 130003Z 11007KT 09/M08 A3016 RMK A01 T00871082  RH  029%=      5-min Rain = 0
KAM3 130004Z 11008KT 09/M08 A3016 RMK A01 T00871082  RH  029%=      5-min Rain = 0
KAM3 130005Z 11007KT 09/M08 A3016 RMK A01 T00871082  RH  029%=      5-min Rain = 0
KAM3 130006Z 10007KT 09/M08 A3016 RMK A01 T00861082  RH  029%=      5-min Rain = 0
KAM3 130007Z 10007KT 09/M08 A3017 RMK A01 T00861082  RH  029%=      5-min Rain = 0
KAM3 130008Z 10007KT 09/M08 A3017 RMK A01 T00851083  RH  029%=      5-min Rain = 0
KAM3 130009Z 10007KT 09/M08 A3017 RMK A01 T00851083  RH  030%=      5-min Rain = 0
KAM3 130010Z 10008KT 08/M08 A3017 RMK A01 T00841083  RH  030%=      5-min Rain = 0
KAM3 130011Z 10008KT 08/M08 A3017 RMK A01 T00841083  RH  030%=      5-min Rain = 0
KAM3 130012Z 11009KT 08/M08 A3017 RMK A01 T00841083  RH  030%=      5-min Rain = 0
KAM3 130013Z 10006KT 08/M08 A3017 RMK A01 T00841083  RH  030%=      5-min Rain = 0
KAM3 130014Z 09007KT 08/M08 A3018 RMK A01 T00831084  RH  030%=      5-min Rain = 0
KAM3 130015Z 09008KT 08/M08 A3018 RMK A01 T00811084  RH  030%=      5-min Rain = 0
KAM3 130016Z 09009KT 08/M08 A3018 RMK A01 T00801084  RH  030%=      5-min Rain = 0
KAM3 130017Z 10012KT 08/M09 A3018 RMK A01 T00801085  RH  030%=      5-min Rain = 0
KAM3 130018Z 10011KT 08/M09 A3018 RMK A01 T00801086  RH  030%=      5-min Rain = 0
KAM3 130019Z 10011KT 08/M09 A3018 RMK A01 T00801087  RH  030%=      5-min Rain = 0
KAM3 130020Z 11011KT 08/M09 A3018 RMK A01 T00791088  RH  030%=      5-min Rain = 0
KAM3 130021Z 09010KT 08/M09 A3018 RMK A01 T00791088  RH  030%=      5-min Rain = 0
KAM3 130022Z 08014KT 08/M09 A3019 RMK A01 T00771090  RH  030%=      5-min Rain = 0
KAM3 130023Z 09015KT 07/M10 A3019 RMK A01 T00701095  RH  030%=      5-min Rain = 0
KAM3 130024Z 09014KT 07/M10 A3019 RMK A01 T00651096  RH  031%=      5-min Rain = 0
KAM3 130025Z 10012KT 06/M10 A3019 RMK A01 T00611096  RH  031%=      5-min Rain = 0
KAM3 130026Z 10013KT 06/M10 A3019 RMK A01 T00581096  RH  032%=      5-min Rain = 0
KAM3 130027Z 10012KT 06/M10 A3019 RMK A01 T00561097  RH  032%=      5-min Rain = 0
KAM3 130028Z 10014KT 05/M10 A3019 RMK A01 T00541097  RH  033%=      5-min Rain = 0
KAM3 130029Z 10014KT 05/M10 A302 RMK A01 T00531098  RH  033%=      5-min Rain = 0
KAM3 130030Z 09014KT 05/M10 A302 RMK A01 T00521098  RH  033%=      5-min Rain = 0
KAM3 130031Z 10013KT 05/M10 A302 RMK A01 T00511098  RH  033%=      5-min Rain = 0
KAM3 130032Z 10012KT 05/M10 A302 RMK A01 T00501098  RH  033%=      5-min Rain = 0
KAM3 130033Z 09013KT 05/M10 A302 RMK A01 T00501099  RH  033%=      5-min Rain = 0
KAM3 130034Z 10012KT 05/M10 A3021 RMK A01 T00491099  RH  033%=      5-min Rain = 0
KAM3 130035Z 09011KT 05/M10 A3021 RMK A01 T00491099  RH  033%=      5-min Rain = 0
KAM3 130036Z 10013KT 05/M10 A3021 RMK A01 T00481101  RH  033%=      5-min Rain = 0
KAM3 130037Z 10013KT 05/M10 A3021 RMK A01 T00481101  RH  033%=      5-min Rain = 0
KAM3 130038Z 10013KT 05/M10 A302 RMK A01 T00481101  RH  033%=      5-min Rain = 0
KAM3 130039Z 10013KT 05/M10 A302 RMK A01 T00471102  RH  033%=      5-min Rain = 0
KAM3 130040Z 10015KT 05/M10 A302 RMK A01 T00461102  RH  033%=      5-min Rain = 0
KAM3 130041Z 10013KT 05/M10 A302 RMK A01 T00451102  RH  033%=      5-min Rain = 0
KAM3 130042Z 11013KT 04/M10 A302 RMK A01 T00441103  RH  034%=      5-min Rain = 0
KAM3 130043Z 11012KT 04/M10 A302 RMK A01 T00441102  RH  034%=      5-min Rain = 0
KAM3 130044Z 10011KT 04/M10 A302 RMK A01 T00431102  RH  034%=      5-min Rain = 0
KAM3 130045Z 11011KT 04/M10 A302 RMK A01 T00431103  RH  034%=      5-min Rain = 0
KAM3 130046Z 10013KT 04/M10 A3021 RMK A01 T00421104  RH  034%=      5-min Rain = 0
KAM3 130047Z 10012KT 04/M10 A3021 RMK A01 T00421104  RH  034%=      5-min Rain = 0
KAM3 130048Z 10011KT 04/M11 A3021 RMK A01 T00411105  RH  034%=      5-min Rain = 0
KAM3 130049Z 10013KT 04/M11 A3021 RMK A01 T00401105  RH  034%=      5-min Rain = 0
KAM3 130050Z 10012KT 04/M11 A3021 RMK A01 T00401105  RH  034%=      5-min Rain = 0
KAM3 130051Z 10013KT 04/M11 A3021 RMK A01 T00401106  RH  034%=      5-min Rain = 0
KAM3 130052Z 10012KT 04/M11 A3022 RMK A01 T00401106  RH  034%=      5-min Rain = 0
KAM3 130053Z 10010KT 04/M11 A3022 RMK A01 T00391106  RH  034%=      5-min Rain = 0
KAM3 130054Z 09009KT 04/M11 A3022 RMK A01 T00391106  RH  034%=      5-min Rain = 0
KAM3 130055Z 10011KT 04/M11 A3023 RMK A01 T00381105  RH  034%=      5-min Rain = 0
KAM3 130056Z 09011KT 04/M11 A3023 RMK A01 T00381106  RH  034%=      5-min Rain = 0
KAM3 130057Z 09009KT 04/M11 A3023 RMK A01 T00381106  RH  034%=      5-min Rain = 0
KAM3 130058Z 09009KT 04/M11 A3023 RMK A01 T00371106  RH  034%=      5-min Rain = 0
KAM3 130059Z 10012KT 04/M11 A3023 RMK A01 T00371107  RH  034%=      5-min Rain = 0
KAM3 130100Z 10011KT 04/M11 A3023 RMK A01 T00371107  RH  034%=      5-min Rain = 0
KAM3 130101Z 09011KT 04/M11 A3024 RMK A01 T00371108  RH  034%=      5-min Rain = 0
KAM3 130102Z 10010KT 04/M11 A3024 RMK A01 T00371108  RH  034%=      5-min Rain = 0
KAM3 130103Z 09010KT 04/M11 A3024 RMK A01 T00351108  RH  034%=      5-min Rain = 0
KAM3 130104Z 09009KT 04/M11 A3024 RMK A01 T00351109  RH  034%=      5-min Rain = 0
KAM3 130105Z 10011KT 03/M11 A3024 RMK A01 T00341109  RH  034%=      5-min Rain = 0
KAM3 130106Z 10011KT 03/M11 A3024 RMK A01 T00341109  RH  034%=      5-min Rain = 0
KAM3 130107Z 09009KT 03/M11 A3024 RMK A01 T00331109  RH  034%=      5-min Rain = 0
KAM3 130108Z 09009KT 03/M11 A3024 RMK A01 T00331110  RH  034%=      5-min Rain = 0
KAM3 130109Z 09008KT 03/M11 A3024 RMK A01 T00321110  RH  034%=      5-min Rain = 0
KAM3 130110Z 09009KT 03/M11 A3024 RMK A01 T00321110  RH  035%=      5-min Rain = 0
KAM3 130111Z 09010KT 03/M11 A3024 RMK A01 T00301110  RH  035%=      5-min Rain = 0
KAM3 130112Z 10011KT 03/M11 A3024 RMK A01 T00301110  RH  035%=      5-min Rain = 0
KAM3 130113Z 10010KT 03/M11 A3024 RMK A01 T00301111  RH  035%=      5-min Rain = 0
KAM3 130114Z 09010KT 03/M11 A3024 RMK A01 T00301111  RH  035%=      5-min Rain = 0
KAM3 130115Z 10012KT 03/M11 A3025 RMK A01 T00301111  RH  035%=      5-min Rain = 0
KAM3 130116Z 09010KT 03/M11 A3025 RMK A01 T00291111  RH  035%=      5-min Rain = 0
KAM3 130117Z 09014KT 03/M11 A3025 RMK A01 T00291112  RH  035%=      5-min Rain = 0
KAM3 130118Z 10013KT 03/M11 A3025 RMK A01 T00281112  RH  035%=      5-min Rain = 0
KAM3 130119Z 10013KT 03/M11 A3025 RMK A01 T00291112  RH  035%=      5-min Rain = 0
KAM3 130120Z 11013KT 03/M11 A3025 RMK A01 T00291112  RH  035%=      5-min Rain = 0
KAM3 130121Z 10011KT 03/M11 A3025 RMK A01 T00281112  RH  035%=      5-min Rain = 0
KAM3 130122Z 10011KT 03/M11 A3026 RMK A01 T00271113  RH  035%=      5-min Rain = 0
KAM3 130123Z 10011KT 03/M11 A3026 RMK A01 T00261113  RH  035%=      5-min Rain = 0
KAM3 130124Z 10011KT 03/M11 A3026 RMK A01 T00261113  RH  035%=      5-min Rain = 0
KAM3 130125Z 09011KT 03/M11 A3026 RMK A01 T00251113  RH  035%=      5-min Rain = 0
KAM3 130126Z 10012KT 03/M11 A3027 RMK A01 T00251113  RH  035%=      5-min Rain = 0
KAM3 130127Z 10012KT 03/M11 A3027 RMK A01 T00251113  RH  035%=      5-min Rain = 0
KAM3 130128Z 09009KT 03/M11 A3027 RMK A01 T00251113  RH  035%=      5-min Rain = 0
KAM3 130129Z 09009KT 02/M11 A3027 RMK A01 T00241114  RH  035%=      5-min Rain = 0
KAM3 130130Z 09010KT 02/M11 A3027 RMK A01 T00231114  RH  036%=      5-min Rain = 0
KAM3 130131Z 09010KT 02/M11 A3027 RMK A01 T00221114  RH  036%=      5-min Rain = 0
KAM3 130132Z 10009KT 02/M11 A3027 RMK A01 T00221114  RH  036%=      5-min Rain = 0
KAM3 130133Z 09009KT 02/M11 A3027 RMK A01 T00221114  RH  036%=      5-min Rain = 0
KAM3 130134Z 09011KT 02/M11 A3027 RMK A01 T00221114  RH  036%=      5-min Rain = 0
KAM3 130135Z 09009KT 02/M11 A3027 RMK A01 T00211114  RH  036%=      5-min Rain = 0
KAM3 130136Z 09009KT 02/M11 A3027 RMK A01 T00211114  RH  036%=      5-min Rain = 0
KAM3 130137Z 09010KT 02/M12 A3028 RMK A01 T00201115  RH  036%=      5-min Rain = 0
KAM3 130138Z 09011KT 02/M11 A3028 RMK A01 T00201114  RH  036%=      5-min Rain = 0
KAM3 130139Z 09009KT 02/M11 A3028 RMK A01 T00211113  RH  036%=      5-min Rain = 0
KAM3 130140Z 08008KT 02/M11 A3028 RMK A01 T00211114  RH  036%=      5-min Rain = 0
KAM3 130141Z 08008KT 02/M12 A3028 RMK A01 T00191115  RH  036%=      5-min Rain = 0
KAM3 130142Z 08008KT 02/M12 A3028 RMK A01 T00171116  RH  037%=      5-min Rain = 0
KAM3 130143Z 08008KT 02/M12 A3028 RMK A01 T00151117  RH  037%=      5-min Rain = 0
KAM3 130144Z 07008KT 01/M12 A3028 RMK A01 T00131117  RH  037%=      5-min Rain = 0
KAM3 130145Z 07007KT 01/M12 A3029 RMK A01 T00121117  RH  038%=      5-min Rain = 0
KAM3 130146Z 07007KT 01/M12 A3029 RMK A01 T00111117  RH  038%=      5-min Rain = 0
KAM3 130147Z 07007KT 01/M12 A3029 RMK A01 T00101117  RH  038%=      5-min Rain = 0
KAM3 130148Z 06007KT 01/M12 A3029 RMK A01 T00081118  RH  039%=      5-min Rain = 0
KAM3 130149Z 06007KT 01/M12 A303 RMK A01 T00071118  RH  039%=      5-min Rain = 0
KAM3 130150Z 06006KT 01/M12 A303 RMK A01 T00061117  RH  039%=      5-min Rain = 0
KAM3 130151Z 06006KT 01/M12 A303 RMK A01 T00061117  RH  039%=      5-min Rain = 0
KAM3 130152Z 06007KT 00/M12 A303 RMK A01 T00041118  RH  039%=      5-min Rain = 0
KAM3 130153Z 05008KT 00/M12 A303 RMK A01 T00031118  RH  040%=      5-min Rain = 0
KAM3 130154Z 06008KT 00/M12 A303 RMK A01 T00021118  RH  040%=      5-min Rain = 0
KAM3 130155Z 05008KT 00/M12 A303 RMK A01 T00021118  RH  040%=      5-min Rain = 0
KAM3 130156Z 06008KT 00/M12 A3031 RMK A01 T00021118  RH  040%=      5-min Rain = 0
KAM3 130157Z 06008KT 00/M12 A3031 RMK A01 T00011119  RH  040%=      5-min Rain = 0
KAM3 130158Z 07008KT 00/M12 A3031 RMK A01 T00011119  RH  040%=      5-min Rain = 0
KAM3 130159Z 07008KT 00/M12 A3031 RMK A01 T00011119  RH  040%=      5-min Rain = 0
KAM3 130200Z 07007KT 00/M12 A3031 RMK A01 T00011118  RH  040%=      5-min Rain = 0
KAM3 130201Z 07007KT 00/12 A3031 RMK A01 T00000-119  RH  040%=      5-min Rain = 0
KAM3 130202Z 07007KT M00/M12 A3031 RMK A01 T10011119  RH  040%=      5-min Rain = 0
KAM3 130203Z 06007KT 00/12 A3031 RMK A01 T00-00-119  RH  041%=      5-min Rain = 0
KAM3 130204Z 06007KT 00/12 A3032 RMK A01 T00-00-119  RH  040%=      5-min Rain = 0
KAM3 130205Z 06007KT M00/M12 A3032 RMK A01 T10011120  RH  040%=      5-min Rain = 0
KAM3 130206Z 06007KT M00/M12 A3032 RMK A01 T10011120  RH  041%=      5-min Rain = 0
KAM3 130207Z 07007KT M00/M12 A3032 RMK A01 T10011119  RH  041%=      5-min Rain = 0
KAM3 130208Z 07007KT M00/M12 A3032 RMK A01 T10011119  RH  041%=      5-min Rain = 0
KAM3 130209Z 07008KT M00/M12 A3032 RMK A01 T10011119  RH  041%=      5-min Rain = 0
KAM3 130210Z 07008KT 00/12 A3032 RMK A01 T00000-119  RH  040%=      5-min Rain = 0
KAM3 130211Z 07008KT 00/M12 A3032 RMK A01 T00011119  RH  040%=      5-min Rain = 0
KAM3 130212Z 07008KT 00/M12 A3032 RMK A01 T00021118  RH  040%=      5-min Rain = 0
KAM3 130213Z 06008KT 00/M12 A3032 RMK A01 T00021118  RH  040%=      5-min Rain = 0
KAM3 130214Z 07008KT 00/M12 A3032 RMK A01 T00021119  RH  040%=      5-min Rain = 0
KAM3 130215Z 06008KT 00/M12 A3032 RMK A01 T00021119  RH  040%=      5-min Rain = 0
KAM3 130216Z 06008KT 00/M12 A3032 RMK A01 T00021119  RH  040%=      5-min Rain = 0
KAM3 130217Z 06008KT 00/M12 A3032 RMK A01 T00021119  RH  040%=      5-min Rain = 0
KAM3 130218Z 08007KT 00/M12 A3032 RMK A01 T00011119  RH  040%=      5-min Rain = 0
KAM3 130219Z 08007KT 00/M12 A3032 RMK A01 T00011119  RH  040%=      5-min Rain = 0
KAM3 130220Z 08007KT 00/M12 A3032 RMK A01 T00011119  RH  040%=      5-min Rain = 0
KAM3 130221Z 08007KT 00/M12 A3032 RMK A01 T00011119  RH  040%=      5-min Rain = 0
KAM3 130222Z 08007KT 00/M12 A3032 RMK A01 T00011119  RH  040%=      5-min Rain = 0
KAM3 130223Z 08007KT 00/12 A3032 RMK A01 T00000-120  RH  040%=      5-min Rain = 0
KAM3 130224Z 08007KT 00/12 A3032 RMK A01 T00000-120  RH  040%=      5-min Rain = 0
KAM3 130225Z 07007KT 00/12 A3032 RMK A01 T00000-120  RH  040%=      5-min Rain = 0
KAM3 130226Z 07008KT 00/12 A3032 RMK A01 T00-00-120  RH  040%=      5-min Rain = 0
KAM3 130227Z 08008KT M00/M12 A3032 RMK A01 T10011121  RH  040%=      5-min Rain = 0
KAM3 130228Z 08008KT M00/M12 A3032 RMK A01 T10011121  RH  040%=      5-min Rain = 0
KAM3 130229Z 08008KT M00/M12 A3033 RMK A01 T10021120  RH  040%=      5-min Rain = 0
KAM3 130230Z 08008KT M00/M12 A3033 RMK A01 T10021121  RH  040%=      5-min Rain = 0
KAM3 130231Z 08008KT M00/M12 A3033 RMK A01 T10021121  RH  040%=      5-min Rain = 0
KAM3 130232Z 09008KT M00/M12 A3033 RMK A01 T10021120  RH  040%=      5-min Rain = 0
KAM3 130233Z 09008KT M00/M12 A3033 RMK A01 T10011120  RH  040%=      5-min Rain = 0
KAM3 130234Z 09007KT M00/M12 A3033 RMK A01 T10011121  RH  040%=      5-min Rain = 0
KAM3 130235Z 10007KT M00/M12 A3033 RMK A01 T10011121  RH  040%=      5-min Rain = 0
KAM3 130236Z 10007KT 00/12 A3033 RMK A01 T00-00-121  RH  040%=      5-min Rain = 0
KAM3 130237Z 10008KT 00/12 A3033 RMK A01 T00000-121  RH  040%=      5-min Rain = 0
KAM3 130238Z 11008KT 00/M12 A3033 RMK A01 T00011121  RH  039%=      5-min Rain = 0
KAM3 130239Z 11007KT 00/M12 A3033 RMK A01 T00011122  RH  039%=      5-min Rain = 0
KAM3 130240Z 11007KT 00/M12 A3033 RMK A01 T00011122  RH  039%=      5-min Rain = 0
KAM3 130241Z 11007KT 00/12 A3033 RMK A01 T00000-122  RH  039%=      5-min Rain = 0
KAM3 130242Z 11006KT M00/M12 A3033 RMK A01 T10011123  RH  039%=      5-min Rain = 0
KAM3 130243Z 10006KT M00/M12 A3033 RMK A01 T10021123  RH  040%=      5-min Rain = 0
KAM3 130244Z 10005KT M00/M12 A3033 RMK A01 T10031124  RH  040%=      5-min Rain = 0
KAM3 130245Z 09005KT M01/M12 A3033 RMK A01 T10051124  RH  040%=      5-min Rain = 0
KAM3 130246Z 09005KT M01/M12 A3034 RMK A01 T10061124  RH  040%=      5-min Rain = 0
KAM3 130247Z 10006KT M01/M13 A3034 RMK A01 T10081125  RH  041%=      5-min Rain = 0
KAM3 130248Z 10006KT M01/M13 A3034 RMK A01 T10091125  RH  041%=      5-min Rain = 0
KAM3 130249Z 09007KT M01/M12 A3034 RMK A01 T10091124  RH  041%=      5-min Rain = 0
KAM3 130250Z 10007KT M01/M13 A3034 RMK A01 T10101125  RH  041%=      5-min Rain = 0
KAM3 130251Z 10007KT M01/M13 A3034 RMK A01 T10111125  RH  042%=      5-min Rain = 0
KAM3 130252Z 10007KT M01/M13 A3034 RMK A01 T10121126  RH  042%=      5-min Rain = 0
KAM3 130253Z 10007KT M01/M13 A3034 RMK A01 T10121126  RH  042%=      5-min Rain = 0
KAM3 130254Z 10007KT M01/M13 A3034 RMK A01 T10121126  RH  042%=      5-min Rain = 0
KAM3 130255Z 10007KT M01/M13 A3034 RMK A01 T10121126  RH  042%=      5-min Rain = 0
KAM3 130256Z 10007KT M01/M13 A3034 RMK A01 T10121126  RH  042%=      5-min Rain = 0
KAM3 130257Z 10006KT M01/M13 A3034 RMK A01 T10111125  RH  042%=      5-min Rain = 0
KAM3 130258Z 11005KT M01/M13 A3034 RMK A01 T10111126  RH  041%=      5-min Rain = 0
KAM3 130259Z 11005KT M01/M13 A3034 RMK A01 T10111126  RH  041%=      5-min Rain = 0
KAM3 130300Z 10006KT M01/M13 A3034 RMK A01 T10131127  RH  042%=      5-min Rain = 0
KAM3 130301Z 10006KT M01/M13 A3034 RMK A01 T10141127  RH  042%=      5-min Rain = 0
KAM3 130302Z 09006KT M02/M13 A3034 RMK A01 T10151128  RH  042%=      5-min Rain = 0
KAM3 130303Z 09006KT M02/M13 A3034 RMK A01 T10161127  RH  043%=      5-min Rain = 0
KAM3 130304Z 09007KT M02/M13 A3034 RMK A01 T10171127  RH  043%=      5-min Rain = 0
KAM3 130305Z 09007KT M02/M13 A3034 RMK A01 T10171127  RH  043%=      5-min Rain = 0
KAM3 130306Z 09007KT M02/M13 A3034 RMK A01 T10171126  RH  043%=      5-min Rain = 0
KAM3 130307Z 09007KT M02/M13 A3034 RMK A01 T10171126  RH  043%=      5-min Rain = 0
KAM3 130308Z 09006KT M02/M13 A3034 RMK A01 T10171127  RH  043%=      5-min Rain = 0
KAM3 130309Z 08006KT M02/M13 A3035 RMK A01 T10181127  RH  043%=      5-min Rain = 0
KAM3 130310Z 08006KT M02/M13 A3035 RMK A01 T10181127  RH  043%=      5-min Rain = 0
KAM3 130311Z 07006KT M02/M13 A3035 RMK A01 T10181128  RH  043%=      5-min Rain = 0
KAM3 130312Z 07006KT M02/M13 A3035 RMK A01 T10191128  RH  043%=      5-min Rain = 0
KAM3 130313Z 07006KT M02/M13 A3035 RMK A01 T10201129  RH  043%=      5-min Rain = 0
KAM3 130314Z 07005KT M02/M13 A3035 RMK A01 T10201128  RH  043%=      5-min Rain = 0
KAM3 130315Z 07006KT M02/M13 A3035 RMK A01 T10201128  RH  043%=      5-min Rain = 0
KAM3 130316Z 07005KT M02/M13 A3035 RMK A01 T10211129  RH  043%=      5-min Rain = 0
KAM3 130317Z 06006KT M02/M13 A3035 RMK A01 T10231130  RH  044%=      5-min Rain = 0
KAM3 130318Z 06006KT M02/M13 A3036 RMK A01 T10241130  RH  044%=      5-min Rain = 0
KAM3 130319Z 06006KT M02/M13 A3036 RMK A01 T10241129  RH  044%=      5-min Rain = 0
KAM3 130320Z 06007KT M03/M13 A3036 RMK A01 T10251129  RH  045%=      5-min Rain = 0
KAM3 130321Z 07006KT M03/M13 A3036 RMK A01 T10251129  RH  045%=      5-min Rain = 0
KAM3 130322Z 07006KT M03/M13 A3036 RMK A01 T10251129  RH  045%=      5-min Rain = 0
KAM3 130323Z 07006KT M03/M13 A3036 RMK A01 T10251129  RH  045%=      5-min Rain = 0
KAM3 130324Z 07006KT M03/M13 A3036 RMK A01 T10261129  RH  045%=      5-min Rain = 0
KAM3 130325Z 07006KT M03/M13 A3036 RMK A01 T10261129  RH  045%=      5-min Rain = 0
KAM3 130326Z 07006KT M03/M13 A3036 RMK A01 T10261129  RH  045%=      5-min Rain = 0
KAM3 130327Z 07006KT M03/M13 A3036 RMK A01 T10261129  RH  045%=      5-min Rain = 0
KAM3 130328Z 08006KT M03/M13 A3036 RMK A01 T10271129  RH  045%=      5-min Rain = 0
KAM3 130329Z 08006KT M03/M13 A3036 RMK A01 T10271130  RH  045%=      5-min Rain = 0
KAM3 130330Z 08006KT M03/M13 A3036 RMK A01 T10271129  RH  045%=      5-min Rain = 0
KAM3 130331Z 08006KT M03/M13 A3036 RMK A01 T10271128  RH  046%=      5-min Rain = 0
KAM3 130332Z 08006KT M03/M13 A3036 RMK A01 T10271128  RH  046%=      5-min Rain = 0
KAM3 130333Z 08005KT M03/M13 A3036 RMK A01 T10271128  RH  046%=      5-min Rain = 0
KAM3 130334Z 08005KT M03/M13 A3036 RMK A01 T10271129  RH  045%=      5-min Rain = 0
KAM3 130335Z 09005KT M03/M13 A3036 RMK A01 T10271129  RH  045%=      5-min Rain = 0
KAM3 130336Z 10005KT M03/M13 A3036 RMK A01 T10271129  RH  046%=      5-min Rain = 0
KAM3 130337Z 11004KT M03/M13 A3036 RMK A01 T10271128  RH  046%=      5-min Rain = 0
KAM3 130338Z 11004KT M03/M13 A3036 RMK A01 T10261128  RH  045%=      5-min Rain = 0
KAM3 130339Z 11004KT M03/M13 A3036 RMK A01 T10251127  RH  045%=      5-min Rain = 0
KAM3 130340Z 11005KT M02/M13 A3036 RMK A01 T10241127  RH  045%=      5-min Rain = 0
KAM3 130341Z 11005KT M02/M13 A3036 RMK A01 T10231127  RH  045%=      5-min Rain = 0
KAM3 130342Z 11006KT M02/M13 A3036 RMK A01 T10231128  RH  045%=      5-min Rain = 0
KAM3 130343Z 11006KT M02/M13 A3036 RMK A01 T10241128  RH  045%=      5-min Rain = 0
KAM3 130344Z 11005KT M02/M13 A3036 RMK A01 T10241128  RH  045%=      5-min Rain = 0
KAM3 130345Z 11005KT M03/M13 A3036 RMK A01 T10251129  RH  045%=      5-min Rain = 0
KAM3 130346Z 12005KT M03/M13 A3036 RMK A01 T10261129  RH  045%=      5-min Rain = 0
KAM3 130347Z 13005KT M03/M13 A3036 RMK A01 T10261129  RH  045%=      5-min Rain = 0
KAM3 130348Z 14004KT M03/M13 A3036 RMK A01 T10271128  RH  045%=      5-min Rain = 0
KAM3 130349Z 15004KT M03/M13 A3036 RMK A01 T10281129  RH  046%=      5-min Rain = 0
KAM3 130350Z 15005KT M03/M13 A3036 RMK A01 T10291130  RH  046%=      5-min Rain = 0
KAM3 130351Z 15006KT M03/M13 A3037 RMK A01 T10291129  RH  046%=      5-min Rain = 0
KAM3 130352Z 15006KT M03/M13 A3037 RMK A01 T10301129  RH  046%=      5-min Rain = 0
KAM3 130353Z 15006KT M03/M13 A3037 RMK A01 T10301130  RH  046%=      5-min Rain = 0
KAM3 130354Z 15006KT M03/M13 A3037 RMK A01 T10311130  RH  046%=      5-min Rain = 0
KAM3 130355Z 15006KT M03/M13 A3037 RMK A01 T10311129  RH  047%=      5-min Rain = 0
KAM3 130356Z 15006KT M03/M13 A3037 RMK A01 T10311129  RH  047%=      5-min Rain = 0
KAM3 130357Z 15006KT M03/M13 A3037 RMK A01 T10311129  RH  047%=      5-min Rain = 0
KAM3 130358Z 16005KT M03/M13 A3037 RMK A01 T10311129  RH  047%=      5-min Rain = 0
KAM3 130359Z 16006KT M03/M13 A3037 RMK A01 T10311129  RH  047%=      5-min Rain = 0
KAM3 130400Z 16005KT M03/M13 A3037 RMK A01 T10311129  RH  047%=      5-min Rain = 0
KAM3 130401Z 16005KT M03/M13 A3037 RMK A01 T10321129  RH  047%=      5-min Rain = 0
KAM3 130402Z 17006KT M03/M13 A3037 RMK A01 T10321129  RH  047%=      5-min Rain = 0
KAM3 130403Z 16005KT M03/M13 A3037 RMK A01 T10311129  RH  047%=      5-min Rain = 0
KAM3 130404Z 15005KT M03/M13 A3037 RMK A01 T10311129  RH  047%=      5-min Rain = 0
KAM3 130405Z 15005KT M03/M13 A3037 RMK A01 T10321128  RH  047%=      5-min Rain = 0
KAM3 130406Z 15005KT M03/M13 A3037 RMK A01 T10321128  RH  047%=      5-min Rain = 0
KAM3 130407Z 15005KT M03/M13 A3037 RMK A01 T10321128  RH  047%=      5-min Rain = 0
KAM3 130408Z 15005KT M03/M13 A3037 RMK A01 T10321128  RH  047%=      5-min Rain = 0
KAM3 130409Z 15005KT M03/M13 A3037 RMK A01 T10321128  RH  047%=      5-min Rain = 0
KAM3 130410Z 15005KT M03/M13 A3037 RMK A01 T10311127  RH  047%=      5-min Rain = 0
KAM3 130411Z 15005KT M03/M13 A3037 RMK A01 T10301127  RH  047%=      5-min Rain = 0
KAM3 130412Z 15004KT M03/M13 A3037 RMK A01 T10301127  RH  047%=      5-min Rain = 0
KAM3 130413Z 15005KT M03/M13 A3038 RMK A01 T10291127  RH  047%=      5-min Rain = 0
KAM3 130414Z 15005KT M03/M13 A3038 RMK A01 T10291127  RH  047%=      5-min Rain = 0
KAM3 130415Z 15005KT M03/M13 A3038 RMK A01 T10281127  RH  047%=      5-min Rain = 0
KAM3 130416Z 15006KT M03/M13 A3038 RMK A01 T10281127  RH  046%=      5-min Rain = 0
KAM3 130417Z 15006KT M03/M13 A3037 RMK A01 T10281127  RH  046%=      5-min Rain = 0
KAM3 130418Z 16007KT M03/M13 A3037 RMK A01 T10281127  RH  046%=      5-min Rain = 0
KAM3 130419Z 15006KT M03/M13 A3038 RMK A01 T10281128  RH  046%=      5-min Rain = 0
KAM3 130420Z 16007KT M03/M13 A3038 RMK A01 T10291128  RH  047%=      5-min Rain = 0
KAM3 130421Z 16007KT M03/M13 A3038 RMK A01 T10311128  RH  047%=      5-min Rain = 0
KAM3 130422Z 16008KT M03/M13 A3038 RMK A01 T10321128  RH  047%=      5-min Rain = 0
KAM3 130423Z 16008KT M03/M13 A3038 RMK A01 T10321128  RH  047%=      5-min Rain = 0
KAM3 130424Z 16008KT M03/M13 A3038 RMK A01 T10331128  RH  048%=      5-min Rain = 0
KAM3 130425Z 16008KT M03/M13 A3038 RMK A01 T10331128  RH  048%=      5-min Rain = 0
KAM3 130426Z 16007KT M03/M13 A3038 RMK A01 T10331128  RH  048%=      5-min Rain = 0
KAM3 130427Z 16007KT M03/M13 A3038 RMK A01 T10341129  RH  048%=      5-min Rain = 0
KAM3 130428Z 16008KT M03/M13 A3038 RMK A01 T10341128  RH  048%=      5-min Rain = 0
KAM3 130429Z 16008KT M03/M13 A3038 RMK A01 T10341129  RH  048%=      5-min Rain = 0
KAM3 130430Z 16007KT M03/M13 A3038 RMK A01 T10341129  RH  048%=      5-min Rain = 0
KAM3 130431Z 16007KT M03/M13 A3038 RMK A01 T10331129  RH  047%=      5-min Rain = 0
KAM3 130432Z 16007KT M03/M13 A3038 RMK A01 T10331129  RH  047%=      5-min Rain = 0
KAM3 130433Z 16006KT M03/M13 A3038 RMK A01 T10321129  RH  047%=      5-min Rain = 0
KAM3 130434Z 16006KT M03/M13 A3039 RMK A01 T10321129  RH  047%=      5-min Rain = 0
KAM3 130435Z 16006KT M03/M13 A3039 RMK A01 T10321129  RH  047%=      5-min Rain = 0
KAM3 130436Z 16006KT M03/M13 A3039 RMK A01 T10311129  RH  047%=      5-min Rain = 0
KAM3 130437Z 16005KT M03/M13 A3039 RMK A01 T10311129  RH  047%=      5-min Rain = 0
KAM3 130438Z 17005KT M03/M13 A3039 RMK A01 T10311129  RH  047%=      5-min Rain = 0
KAM3 130439Z 17005KT M03/M13 A3039 RMK A01 T10311129  RH  047%=      5-min Rain = 0
KAM3 130440Z 17006KT M03/M13 A3039 RMK A01 T10311129  RH  047%=      5-min Rain = 0
KAM3 130441Z 18007KT M03/M13 A3039 RMK A01 T10321130  RH  047%=      5-min Rain = 0
KAM3 130442Z 18007KT M03/M13 A3039 RMK A01 T10321130  RH  047%=      5-min Rain = 0
KAM3 130443Z 18006KT M03/M13 A3039 RMK A01 T10301129  RH  046%=      5-min Rain = 0
KAM3 130444Z 18006KT M03/M13 A3039 RMK A01 T10281128  RH  046%=      5-min Rain = 0
KAM3 130445Z 19006KT M03/M13 A3039 RMK A01 T10291129  RH  046%=      5-min Rain = 0
KAM3 130446Z 19006KT M03/M13 A3039 RMK A01 T10311131  RH  046%=      5-min Rain = 0
KAM3 130447Z 19006KT M03/M13 A3039 RMK A01 T10341133  RH  046%=      5-min Rain = 0
KAM3 130448Z 19006KT M04/M14 A3039 RMK A01 T10371135  RH  047%=      5-min Rain = 0
KAM3 130449Z 20006KT M04/M14 A3039 RMK A01 T10401135  RH  048%=      5-min Rain = 0
KAM3 130450Z 20005KT M04/M14 A3039 RMK A01 T10421136  RH  048%=      5-min Rain = 0
KAM3 130451Z 20005KT M04/M14 A3039 RMK A01 T10441135  RH  049%=      5-min Rain = 0
KAM3 130452Z 20005KT M05/M13 A3039 RMK A01 T10451134  RH  050%=      5-min Rain = 0
KAM3 130453Z 20004KT M04/M13 A3039 RMK A01 T10441133  RH  050%=      5-min Rain = 0
KAM3 130454Z 21004KT M04/M13 A3039 RMK A01 T10441133  RH  050%=      5-min Rain = 0
KAM3 130455Z 21004KT M04/M13 A3039 RMK A01 T10441133  RH  050%=      5-min Rain = 0
KAM3 130456Z 21003KT M04/M13 A3039 RMK A01 T10431133  RH  050%=      5-min Rain = 0
KAM3 130457Z 21003KT M04/M13 A304 RMK A01 T10431132  RH  050%=      5-min Rain = 0
KAM3 130458Z 23002KT M04/M13 A304 RMK A01 T10421131  RH  050%=      5-min Rain = 0
KAM3 130459Z 26002KT M04/M13 A304 RMK A01 T10421131  RH  050%=      5-min Rain = 0
KAM3 130500Z 27002KT M04/M13 A304 RMK A01 T10421133  RH  049%=      5-min Rain = 0
KAM3 130501Z 27002KT M05/M14 A304 RMK A01 T10471138  RH  049%=      5-min Rain = 0
KAM3 130502Z 27002KT M05/M14 A304 RMK A01 T10521140  RH  050%=      5-min Rain = 0
KAM3 130503Z 26002KT M05/M14 A304 RMK A01 T10541139  RH  051%=      5-min Rain = 0
KAM3 130504Z 25003KT M05/M14 A304 RMK A01 T10541138  RH  052%=      5-min Rain = 0
KAM3 130505Z 26003KT M06/M14 A304 RMK A01 T10551137  RH  052%=      5-min Rain = 0
KAM3 130506Z 29003KT M06/M14 A3041 RMK A01 T10551136  RH  053%=      5-min Rain = 0
KAM3 130507Z 29004KT M06/M14 A3041 RMK A01 T10551136  RH  053%=      5-min Rain = 0
KAM3 130508Z 28003KT M06/M14 A3041 RMK A01 T10551136  RH  053%=      5-min Rain = 0
KAM3 130509Z 27003KT M05/M13 A3041 RMK A01 T10541134  RH  053%=      5-min Rain = 0
KAM3 130510Z 26003KT M05/M13 A3041 RMK A01 T10521132  RH  053%=      5-min Rain = 0
KAM3 130511Z 27003KT M05/M13 A3041 RMK A01 T10501132  RH  053%=      5-min Rain = 0
KAM3 130512Z 27003KT M05/M13 A3041 RMK A01 T10481131  RH  052%=      5-min Rain = 0
KAM3 130513Z 27002KT M05/M13 A3041 RMK A01 T10451131  RH  051%=      5-min Rain = 0
KAM3 130514Z 26002KT M04/M13 A3041 RMK A01 T10441130  RH  051%=      5-min Rain = 0
KAM3 130515Z 25003KT M04/M13 A3041 RMK A01 T10431131  RH  050%=      5-min Rain = 0
KAM3 130516Z 25003KT M04/M13 A3041 RMK A01 T10421130  RH  050%=      5-min Rain = 0
KAM3 130517Z 25003KT M04/M13 A3041 RMK A01 T10401130  RH  050%=      5-min Rain = 0
KAM3 130518Z 25002KT M04/M13 A3041 RMK A01 T10391130  RH  049%=      5-min Rain = 0
KAM3 130519Z 25002KT M04/M13 A3041 RMK A01 T10381131  RH  049%=      5-min Rain = 0
KAM3 130520Z 25002KT M04/M13 A3041 RMK A01 T10391132  RH  048%=      5-min Rain = 0
KAM3 130521Z 25002KT M04/M13 A3041 RMK A01 T10381132  RH  048%=      5-min Rain = 0
KAM3 130522Z 25001KT M04/M13 A3041 RMK A01 T10381131  RH  048%=      5-min Rain = 0
KAM3 130523Z 25001KT M04/M13 A3041 RMK A01 T10381132  RH  048%=      5-min Rain = 0
KAM3 130524Z 25001KT M04/M13 A3041 RMK A01 T10381132  RH  048%=      5-min Rain = 0
KAM3 130525Z 25001KT M04/M13 A3041 RMK A01 T10381132  RH  048%=      5-min Rain = 0
KAM3 130526Z 25002KT M04/M13 A3041 RMK A01 T10371131  RH  048%=      5-min Rain = 0
KAM3 130527Z 24003KT M04/M13 A3041 RMK A01 T10371130  RH  048%=      5-min Rain = 0
KAM3 130528Z 23003KT M04/M13 A3041 RMK A01 T10361130  RH  048%=      5-min Rain = 0
KAM3 130529Z 23003KT M04/M13 A3041 RMK A01 T10361130  RH  048%=      5-min Rain = 0
KAM3 130530Z 23003KT M04/M13 A3041 RMK A01 T10361130  RH  048%=      5-min Rain = 0
KAM3 130531Z 24003KT M04/M13 A3041 RMK A01 T10361130  RH  048%=      5-min Rain = 0
KAM3 130532Z 24004KT M04/M13 A3041 RMK A01 T10361130  RH  048%=      5-min Rain = 0
KAM3 130533Z 24003KT M03/M13 A3041 RMK A01 T10341129  RH  048%=      5-min Rain = 0
KAM3 130534Z 23004KT M03/M13 A3041 RMK A01 T10331129  RH  047%=      5-min Rain = 0
KAM3 130535Z 23004KT M03/M13 A3041 RMK A01 T10321129  RH  047%=      5-min Rain = 0
KAM3 130536Z 23004KT M03/M13 A3041 RMK A01 T10321130  RH  047%=      5-min Rain = 0
KAM3 130537Z 23003KT M03/M13 A3041 RMK A01 T10321130  RH  047%=      5-min Rain = 0
KAM3 130538Z 23002KT M03/M13 A3041 RMK A01 T10321130  RH  047%=      5-min Rain = 0
KAM3 130539Z 21002KT M03/M13 A3041 RMK A01 T10321130  RH  047%=      5-min Rain = 0
KAM3 130540Z 21003KT M03/M13 A3041 RMK A01 T10331130  RH  047%=      5-min Rain = 0
KAM3 130541Z 22003KT M03/M13 A3041 RMK A01 T10331130  RH  047%=      5-min Rain = 0
KAM3 130542Z 21003KT M03/M13 A3041 RMK A01 T10331130  RH  047%=      5-min Rain = 0
KAM3 130543Z 20003KT M03/M13 A3041 RMK A01 T10331130  RH  047%=      5-min Rain = 0
KAM3 130544Z 19002KT M03/M13 A3041 RMK A01 T10331130  RH  047%=      5-min Rain = 0
KAM3 130545Z 19001KT M03/M13 A3041 RMK A01 T10331130  RH  047%=      5-min Rain = 0
KAM3 130546Z 00000KT M03/M13 A3041 RMK A01 T10331130  RH  047%=      5-min Rain = 0
KAM3 130547Z 00000KT M03/M13 A3041 RMK A01 T10331130  RH  047%=      5-min Rain = 0
KAM3 130548Z 00000KT M03/M13 A3042 RMK A01 T10331130  RH  047%=      5-min Rain = 0
KAM3 130549Z 00000KT M03/M13 A3042 RMK A01 T10321129  RH  047%=      5-min Rain = 0
KAM3 130550Z 19000KT M03/M13 A3042 RMK A01 T10311129  RH  047%=      5-min Rain = 0
KAM3 130551Z 19001KT M03/M13 A3042 RMK A01 T10301129  RH  047%=      5-min Rain = 0
KAM3 130552Z 19002KT M03/M13 A3042 RMK A01 T10301129  RH  046%=      5-min Rain = 0
KAM3 130553Z 19001KT M03/M13 A3042 RMK A01 T10321131  RH  046%=      5-min Rain = 0
KAM3 130554Z 19001KT M03/M13 A3042 RMK A01 T10331131  RH  047%=      5-min Rain = 0
KAM3 130555Z 19001KT M03/M13 A3042 RMK A01 T10331130  RH  047%=      5-min Rain = 0
KAM3 130556Z 19001KT M03/M13 A3042 RMK A01 T10331130  RH  047%=      5-min Rain = 0
KAM3 130557Z 12002KT M03/M13 A3042 RMK A01 T10331130  RH  047%=      5-min Rain = 0
KAM3 130558Z 06003KT M04/M13 A3042 RMK A01 T10361134  RH  046%=      5-min Rain = 0
KAM3 130559Z 03002KT M04/M14 A3042 RMK A01 T10401136  RH  047%=      5-min Rain = 0

Page generated in 0.0944 seconds.